<?xml version="1.0" encoding="UTF-8" standalone="no" ?>
<gpx xmlns="http://www.topografix.com/GPX/1/1" xmlns:xsi="http://www.w3.org/2001/XMLSchema-instance" xsi:schemaLocation="http://www.topografix.com/GPX/1/1 http://www.topografix.com/GPX/1/1/gpx.xsd" version="1.1" creator="VisuGPX - https://www.visugpx.com">
  <metadata>
    <name>Rieulay 63km</name>
  </metadata>
  <trk>
    <name><![CDATA[Rieulay 63km]]></name>
    <trkseg>
      <trkpt lat="50.46517" lon="3.26206">
        <ele>24.38634681702</ele>
        <time>2020-12-18T18:20:50.000Z</time>
      </trkpt>
      <trkpt lat="50.46501" lon="3.26208">
        <ele>24.57963371277</ele>
        <time>2020-12-18T18:20:50.003Z</time>
      </trkpt>
      <trkpt lat="50.46488" lon="3.26199">
        <ele>24.73420524597</ele>
        <time>2020-12-18T18:20:50.009Z</time>
      </trkpt>
      <trkpt lat="50.46475" lon="3.2621">
        <ele>24.88867378235</ele>
        <time>2020-12-18T18:20:50.018Z</time>
      </trkpt>
      <trkpt lat="50.46454" lon="3.26314">
        <ele>24.38069915771</ele>
        <time>2020-12-18T18:20:50.041Z</time>
      </trkpt>
      <trkpt lat="50.46453" lon="3.26318">
        <ele>24.34208297729</ele>
        <time>2020-12-18T18:20:50.065Z</time>
      </trkpt>
      <trkpt lat="50.46451" lon="3.26329">
        <ele>24.20048522949</ele>
        <time>2020-12-18T18:20:50.090Z</time>
      </trkpt>
      <trkpt lat="50.46416" lon="3.26347">
        <ele>24.60741996765</ele>
        <time>2020-12-18T18:20:50.122Z</time>
      </trkpt>
      <trkpt lat="50.46416" lon="3.26347">
        <ele>24.60671615601</ele>
        <time>2020-12-18T18:20:50.155Z</time>
      </trkpt>
      <trkpt lat="50.46059" lon="3.26524">
        <ele>27.8830871582</ele>
        <time>2020-12-18T18:20:50.262Z</time>
      </trkpt>
      <trkpt lat="50.46059" lon="3.26524">
        <ele>27.88318824768</ele>
        <time>2020-12-18T18:20:50.369Z</time>
      </trkpt>
      <trkpt lat="50.45968" lon="3.26549">
        <ele>30.93203926086</ele>
        <time>2020-12-18T18:20:50.495Z</time>
      </trkpt>
      <trkpt lat="50.45527" lon="3.26665">
        <ele>24.63575363159</ele>
        <time>2020-12-18T18:20:50.710Z</time>
      </trkpt>
      <trkpt lat="50.45527" lon="3.26665">
        <ele>24.63555335999</ele>
        <time>2020-12-18T18:20:50.925Z</time>
      </trkpt>
      <trkpt lat="50.45035" lon="3.26779">
        <ele>20.19307327271</ele>
        <time>2020-12-18T18:20:51.240Z</time>
      </trkpt>
      <trkpt lat="50.44806" lon="3.26844">
        <ele>19.97829437256</ele>
        <time>2020-12-18T18:20:51.602Z</time>
      </trkpt>
      <trkpt lat="50.44806" lon="3.26844">
        <ele>19.97829437256</ele>
        <time>2020-12-18T18:20:51.964Z</time>
      </trkpt>
      <trkpt lat="50.44714" lon="3.26867">
        <ele>20</ele>
        <time>2020-12-18T18:20:52.344Z</time>
      </trkpt>
      <trkpt lat="50.44531" lon="3.26931">
        <ele>20.78653335571</ele>
        <time>2020-12-18T18:20:52.762Z</time>
      </trkpt>
      <trkpt lat="50.44368" lon="3.27003">
        <ele>19.88341712952</ele>
        <time>2020-12-18T18:20:53.214Z</time>
      </trkpt>
      <trkpt lat="50.44176" lon="3.27086">
        <ele>23.57056045532</ele>
        <time>2020-12-18T18:20:53.706Z</time>
      </trkpt>
      <trkpt lat="50.43788" lon="3.27257">
        <ele>27.8000087738</ele>
        <time>2020-12-18T18:20:54.278Z</time>
      </trkpt>
      <trkpt lat="50.43769" lon="3.27266">
        <ele>27.70845413208</ele>
        <time>2020-12-18T18:20:54.854Z</time>
      </trkpt>
      <trkpt lat="50.43472" lon="3.27398">
        <ele>22.00597763062</ele>
        <time>2020-12-18T18:20:55.492Z</time>
      </trkpt>
      <trkpt lat="50.43363" lon="3.27446">
        <ele>28.1055355072</ele>
        <time>2020-12-18T18:20:56.153Z</time>
      </trkpt>
      <trkpt lat="50.43353" lon="3.27451">
        <ele>27.7061882019</ele>
        <time>2020-12-18T18:20:56.816Z</time>
      </trkpt>
      <trkpt lat="50.43182" lon="3.27527">
        <ele>25.53522109985</ele>
        <time>2020-12-18T18:20:57.514Z</time>
      </trkpt>
      <trkpt lat="50.43182" lon="3.27527">
        <ele>25.53491973877</ele>
        <time>2020-12-18T18:20:58.212Z</time>
      </trkpt>
      <trkpt lat="50.42962" lon="3.27624">
        <ele>28.52550888062</ele>
        <time>2020-12-18T18:20:58.956Z</time>
      </trkpt>
      <trkpt lat="50.42816" lon="3.27689">
        <ele>24.31782150269</ele>
        <time>2020-12-18T18:20:59.731Z</time>
      </trkpt>
      <trkpt lat="50.42816" lon="3.27689">
        <ele>24.31772041321</ele>
        <time>2020-12-18T18:21:00.506Z</time>
      </trkpt>
      <trkpt lat="50.42542" lon="3.2781">
        <ele>26.43649291992</ele>
        <time>2020-12-18T18:21:01.338Z</time>
      </trkpt>
      <trkpt lat="50.42175" lon="3.27977">
        <ele>28.41262626648</ele>
        <time>2020-12-18T18:21:02.246Z</time>
      </trkpt>
      <trkpt lat="50.42175" lon="3.27977">
        <ele>28.4123249054</ele>
        <time>2020-12-18T18:21:03.154Z</time>
      </trkpt>
      <trkpt lat="50.42058" lon="3.2803">
        <ele>22.12931251526</ele>
        <time>2020-12-18T18:21:04.087Z</time>
      </trkpt>
      <trkpt lat="50.41954" lon="3.28077">
        <ele>17.83161735535</ele>
        <time>2020-12-18T18:21:05.041Z</time>
      </trkpt>
      <trkpt lat="50.41944" lon="3.28082">
        <ele>17.47632980347</ele>
        <time>2020-12-18T18:21:05.997Z</time>
      </trkpt>
      <trkpt lat="50.41705" lon="3.2819">
        <ele>16.36023330688</ele>
        <time>2020-12-18T18:21:07.003Z</time>
      </trkpt>
      <trkpt lat="50.41705" lon="3.2819">
        <ele>16.36033439636</ele>
        <time>2020-12-18T18:21:08.009Z</time>
      </trkpt>
      <trkpt lat="50.41279" lon="3.28383">
        <ele>17.77011299133</ele>
        <time>2020-12-18T18:21:09.104Z</time>
      </trkpt>
      <trkpt lat="50.41279" lon="3.28383">
        <ele>17.77001190186</ele>
        <time>2020-12-18T18:21:10.199Z</time>
      </trkpt>
      <trkpt lat="50.41179" lon="3.2843">
        <ele>16.56000137329</ele>
        <time>2020-12-18T18:21:11.315Z</time>
      </trkpt>
      <trkpt lat="50.41135" lon="3.28461">
        <ele>16.37738990784</ele>
        <time>2020-12-18T18:21:12.440Z</time>
      </trkpt>
      <trkpt lat="50.41135" lon="3.28461">
        <ele>16.37728881836</ele>
        <time>2020-12-18T18:21:13.565Z</time>
      </trkpt>
      <trkpt lat="50.41106" lon="3.28483">
        <ele>16.63453674316</ele>
        <time>2020-12-18T18:21:14.697Z</time>
      </trkpt>
      <trkpt lat="50.41114" lon="3.28599">
        <ele>16.76299095154</ele>
        <time>2020-12-18T18:21:15.844Z</time>
      </trkpt>
      <trkpt lat="50.41072" lon="3.28605">
        <ele>16.1837310791</ele>
        <time>2020-12-18T18:21:16.999Z</time>
      </trkpt>
      <trkpt lat="50.41066" lon="3.28606">
        <ele>16.09573554993</ele>
        <time>2020-12-18T18:21:18.156Z</time>
      </trkpt>
      <trkpt lat="50.41066" lon="3.28606">
        <ele>16.09563446045</ele>
        <time>2020-12-18T18:21:19.313Z</time>
      </trkpt>
      <trkpt lat="50.41025" lon="3.28611">
        <ele>16.17923164368</ele>
        <time>2020-12-18T18:21:20.478Z</time>
      </trkpt>
      <trkpt lat="50.41003" lon="3.28618">
        <ele>16.25646781921</ele>
        <time>2020-12-18T18:21:21.647Z</time>
      </trkpt>
      <trkpt lat="50.41001" lon="3.28593">
        <ele>16</ele>
        <time>2020-12-18T18:21:22.820Z</time>
      </trkpt>
      <trkpt lat="50.40922" lon="3.28722">
        <ele>18.0426864624</ele>
        <time>2020-12-18T18:21:24.015Z</time>
      </trkpt>
      <trkpt lat="50.40922" lon="3.28722">
        <ele>18.04228401184</ele>
        <time>2020-12-18T18:21:25.210Z</time>
      </trkpt>
      <trkpt lat="50.40911" lon="3.28739">
        <ele>18.29027938843</ele>
        <time>2020-12-18T18:21:26.408Z</time>
      </trkpt>
      <trkpt lat="50.40911" lon="3.28739">
        <ele>18.29048156738</ele>
        <time>2020-12-18T18:21:27.606Z</time>
      </trkpt>
      <trkpt lat="50.40618" lon="3.29292">
        <ele>15.65962982178</ele>
        <time>2020-12-18T18:21:28.896Z</time>
      </trkpt>
      <trkpt lat="50.40554" lon="3.29385">
        <ele>15.93176937103</ele>
        <time>2020-12-18T18:21:30.204Z</time>
      </trkpt>
      <trkpt lat="50.40472" lon="3.29467">
        <ele>17</ele>
        <time>2020-12-18T18:21:31.531Z</time>
      </trkpt>
      <trkpt lat="50.40449" lon="3.29477">
        <ele>17.38633918762</ele>
        <time>2020-12-18T18:21:32.863Z</time>
      </trkpt>
      <trkpt lat="50.40321" lon="3.29531">
        <ele>17.06397819519</ele>
        <time>2020-12-18T18:21:34.222Z</time>
      </trkpt>
      <trkpt lat="50.40189" lon="3.29538">
        <ele>16.61064720154</ele>
        <time>2020-12-18T18:21:35.607Z</time>
      </trkpt>
      <trkpt lat="50.40189" lon="3.29538">
        <ele>16.61054611206</ele>
        <time>2020-12-18T18:21:36.992Z</time>
      </trkpt>
      <trkpt lat="50.40171" lon="3.29539">
        <ele>16.84114456177</ele>
        <time>2020-12-18T18:21:38.381Z</time>
      </trkpt>
      <trkpt lat="50.40152" lon="3.29541">
        <ele>17</ele>
        <time>2020-12-18T18:21:39.774Z</time>
      </trkpt>
      <trkpt lat="50.40151" lon="3.29541">
        <ele>17</ele>
        <time>2020-12-18T18:21:41.167Z</time>
      </trkpt>
      <trkpt lat="50.40148" lon="3.29517">
        <ele>16.85391616821</ele>
        <time>2020-12-18T18:21:42.563Z</time>
      </trkpt>
      <trkpt lat="50.40194" lon="3.28978">
        <ele>15.41838741302</ele>
        <time>2020-12-18T18:21:44.028Z</time>
      </trkpt>
      <trkpt lat="50.40204" lon="3.28934">
        <ele>15.94615840912</ele>
        <time>2020-12-18T18:21:45.499Z</time>
      </trkpt>
      <trkpt lat="50.4029" lon="3.28795">
        <ele>16.61957740784</ele>
        <time>2020-12-18T18:21:46.995Z</time>
      </trkpt>
      <trkpt lat="50.40304" lon="3.28783">
        <ele>16.83012199402</ele>
        <time>2020-12-18T18:21:48.494Z</time>
      </trkpt>
      <trkpt lat="50.40365" lon="3.2871">
        <ele>17.19732093811</ele>
        <time>2020-12-18T18:21:50.009Z</time>
      </trkpt>
      <trkpt lat="50.40402" lon="3.28685">
        <ele>17.24034118652</ele>
        <time>2020-12-18T18:21:51.532Z</time>
      </trkpt>
      <trkpt lat="50.40486" lon="3.28653">
        <ele>18</ele>
        <time>2020-12-18T18:21:53.072Z</time>
      </trkpt>
      <trkpt lat="50.40518" lon="3.2863">
        <ele>18</ele>
        <time>2020-12-18T18:21:54.619Z</time>
      </trkpt>
      <trkpt lat="50.40542" lon="3.28599">
        <ele>18</ele>
        <time>2020-12-18T18:21:56.172Z</time>
      </trkpt>
      <trkpt lat="50.40562" lon="3.28565">
        <ele>18.15833854675</ele>
        <time>2020-12-18T18:21:57.731Z</time>
      </trkpt>
      <trkpt lat="50.40605" lon="3.2843">
        <ele>18.34647369385</ele>
        <time>2020-12-18T18:21:59.310Z</time>
      </trkpt>
      <trkpt lat="50.40615" lon="3.28346">
        <ele>18.60418701172</ele>
        <time>2020-12-18T18:22:00.899Z</time>
      </trkpt>
      <trkpt lat="50.40613" lon="3.28257">
        <ele>19.53694534302</ele>
        <time>2020-12-18T18:22:02.500Z</time>
      </trkpt>
      <trkpt lat="50.40613" lon="3.28257">
        <ele>19.53694534302</ele>
        <time>2020-12-18T18:22:04.101Z</time>
      </trkpt>
      <trkpt lat="50.4061" lon="3.28175">
        <ele>19.47519683838</ele>
        <time>2020-12-18T18:22:05.712Z</time>
      </trkpt>
      <trkpt lat="50.40581" lon="3.27974">
        <ele>19.56016921997</ele>
        <time>2020-12-18T18:22:07.350Z</time>
      </trkpt>
      <trkpt lat="50.40575" lon="3.27888">
        <ele>18.93842315674</ele>
        <time>2020-12-18T18:22:08.999Z</time>
      </trkpt>
      <trkpt lat="50.4051" lon="3.27643">
        <ele>17.09586334229</ele>
        <time>2020-12-18T18:22:10.682Z</time>
      </trkpt>
      <trkpt lat="50.40478" lon="3.27521">
        <ele>16.51633071899</ele>
        <time>2020-12-18T18:22:12.382Z</time>
      </trkpt>
      <trkpt lat="50.40388" lon="3.27403">
        <ele>17.3151550293</ele>
        <time>2020-12-18T18:22:14.105Z</time>
      </trkpt>
      <trkpt lat="50.40347" lon="3.27335">
        <ele>17.44485473633</ele>
        <time>2020-12-18T18:22:15.840Z</time>
      </trkpt>
      <trkpt lat="50.40307" lon="3.27241">
        <ele>16</ele>
        <time>2020-12-18T18:22:17.589Z</time>
      </trkpt>
      <trkpt lat="50.40257" lon="3.27007">
        <ele>17.35701560974</ele>
        <time>2020-12-18T18:22:19.370Z</time>
      </trkpt>
      <trkpt lat="50.40241" lon="3.26975">
        <ele>17.55010223389</ele>
        <time>2020-12-18T18:22:21.156Z</time>
      </trkpt>
      <trkpt lat="50.40183" lon="3.26896">
        <ele>17.21053314209</ele>
        <time>2020-12-18T18:22:22.958Z</time>
      </trkpt>
      <trkpt lat="50.40167" lon="3.26838">
        <ele>16.52021408081</ele>
        <time>2020-12-18T18:22:24.768Z</time>
      </trkpt>
      <trkpt lat="50.40096" lon="3.26467">
        <ele>15.98112010956</ele>
        <time>2020-12-18T18:22:26.627Z</time>
      </trkpt>
      <trkpt lat="50.40029" lon="3.2628">
        <ele>17.79261779785</ele>
        <time>2020-12-18T18:22:28.514Z</time>
      </trkpt>
      <trkpt lat="50.39954" lon="3.25986">
        <ele>17.31967163086</ele>
        <time>2020-12-18T18:22:30.441Z</time>
      </trkpt>
      <trkpt lat="50.39928" lon="3.25929">
        <ele>18</ele>
        <time>2020-12-18T18:22:32.377Z</time>
      </trkpt>
      <trkpt lat="50.3986" lon="3.25861">
        <ele>17.73974990845</ele>
        <time>2020-12-18T18:22:34.329Z</time>
      </trkpt>
      <trkpt lat="50.39841" lon="3.25825">
        <ele>17.50804710388</ele>
        <time>2020-12-18T18:22:36.287Z</time>
      </trkpt>
      <trkpt lat="50.39788" lon="3.25675">
        <ele>17.07001876831</ele>
        <time>2020-12-18T18:22:38.267Z</time>
      </trkpt>
      <trkpt lat="50.39726" lon="3.25574">
        <ele>17.13069343567</ele>
        <time>2020-12-18T18:22:40.265Z</time>
      </trkpt>
      <trkpt lat="50.39494" lon="3.25304">
        <ele>18.71359634399</ele>
        <time>2020-12-18T18:22:42.321Z</time>
      </trkpt>
      <trkpt lat="50.39447" lon="3.25263">
        <ele>18.55912590027</ele>
        <time>2020-12-18T18:22:44.388Z</time>
      </trkpt>
      <trkpt lat="50.39176" lon="3.25091">
        <ele>16</ele>
        <time>2020-12-18T18:22:46.514Z</time>
      </trkpt>
      <trkpt lat="50.38958" lon="3.24776">
        <ele>17.91401290894</ele>
        <time>2020-12-18T18:22:48.699Z</time>
      </trkpt>
      <trkpt lat="50.38958" lon="3.24776">
        <ele>17.91411399841</ele>
        <time>2020-12-18T18:22:50.884Z</time>
      </trkpt>
      <trkpt lat="50.38732" lon="3.24444">
        <ele>17.18089675903</ele>
        <time>2020-12-18T18:22:53.131Z</time>
      </trkpt>
      <trkpt lat="50.38732" lon="3.24444">
        <ele>17.18069458008</ele>
        <time>2020-12-18T18:22:55.378Z</time>
      </trkpt>
      <trkpt lat="50.38724" lon="3.24433">
        <ele>17.04100799561</ele>
        <time>2020-12-18T18:22:57.627Z</time>
      </trkpt>
      <trkpt lat="50.38705" lon="3.24393">
        <ele>17.3716583252</ele>
        <time>2020-12-18T18:22:59.883Z</time>
      </trkpt>
      <trkpt lat="50.38696" lon="3.2435">
        <ele>17.6805973053</ele>
        <time>2020-12-18T18:23:02.144Z</time>
      </trkpt>
      <trkpt lat="50.3867" lon="3.2434">
        <ele>18.9372253418</ele>
        <time>2020-12-18T18:23:04.411Z</time>
      </trkpt>
      <trkpt lat="50.3867" lon="3.2434">
        <ele>18.93752861023</ele>
        <time>2020-12-18T18:23:06.678Z</time>
      </trkpt>
      <trkpt lat="50.38661" lon="3.24326">
        <ele>20.12149238586</ele>
        <time>2020-12-18T18:23:08.947Z</time>
      </trkpt>
      <trkpt lat="50.38655" lon="3.24318">
        <ele>20.82947731018</ele>
        <time>2020-12-18T18:23:11.218Z</time>
      </trkpt>
      <trkpt lat="50.38648" lon="3.24309">
        <ele>21.61499977112</ele>
        <time>2020-12-18T18:23:13.491Z</time>
      </trkpt>
      <trkpt lat="50.38643" lon="3.24187">
        <ele>27.43267631531</ele>
        <time>2020-12-18T18:23:15.779Z</time>
      </trkpt>
      <trkpt lat="50.38644" lon="3.24163">
        <ele>26.53227233887</ele>
        <time>2020-12-18T18:23:18.070Z</time>
      </trkpt>
      <trkpt lat="50.38533" lon="3.2423">
        <ele>35</ele>
        <time>2020-12-18T18:23:20.385Z</time>
      </trkpt>
      <trkpt lat="50.38533" lon="3.2423">
        <ele>35</ele>
        <time>2020-12-18T18:23:22.700Z</time>
      </trkpt>
      <trkpt lat="50.38508" lon="3.24245">
        <ele>35</ele>
        <time>2020-12-18T18:23:25.021Z</time>
      </trkpt>
      <trkpt lat="50.38472" lon="3.24191">
        <ele>35</ele>
        <time>2020-12-18T18:23:27.352Z</time>
      </trkpt>
      <trkpt lat="50.38436" lon="3.24107">
        <ele>35</ele>
        <time>2020-12-18T18:23:29.695Z</time>
      </trkpt>
      <trkpt lat="50.38384" lon="3.24037">
        <ele>35.70892715454</ele>
        <time>2020-12-18T18:23:32.052Z</time>
      </trkpt>
      <trkpt lat="50.38302" lon="3.2397">
        <ele>32.95787811279</ele>
        <time>2020-12-18T18:23:34.428Z</time>
      </trkpt>
      <trkpt lat="50.38281" lon="3.24043">
        <ele>35.10348510742</ele>
        <time>2020-12-18T18:23:36.814Z</time>
      </trkpt>
      <trkpt lat="50.38261" lon="3.24088">
        <ele>33.01514053345</ele>
        <time>2020-12-18T18:23:39.207Z</time>
      </trkpt>
      <trkpt lat="50.38254" lon="3.24132">
        <ele>30.72279930115</ele>
        <time>2020-12-18T18:23:41.606Z</time>
      </trkpt>
      <trkpt lat="50.38274" lon="3.24175">
        <ele>28.67042160034</ele>
        <time>2020-12-18T18:23:44.012Z</time>
      </trkpt>
      <trkpt lat="50.38274" lon="3.24175">
        <ele>28.67062187195</ele>
        <time>2020-12-18T18:23:46.418Z</time>
      </trkpt>
      <trkpt lat="50.38282" lon="3.24203">
        <ele>28.60873031616</ele>
        <time>2020-12-18T18:23:48.828Z</time>
      </trkpt>
      <trkpt lat="50.38272" lon="3.2429">
        <ele>27.11359405518</ele>
        <time>2020-12-18T18:23:51.249Z</time>
      </trkpt>
      <trkpt lat="50.38282" lon="3.24401">
        <ele>25.29514122009</ele>
        <time>2020-12-18T18:23:53.684Z</time>
      </trkpt>
      <trkpt lat="50.38272" lon="3.24419">
        <ele>24.25741195679</ele>
        <time>2020-12-18T18:23:56.122Z</time>
      </trkpt>
      <trkpt lat="50.38235" lon="3.24431">
        <ele>21.34345245361</ele>
        <time>2020-12-18T18:23:58.568Z</time>
      </trkpt>
      <trkpt lat="50.38225" lon="3.24448">
        <ele>20.26767921448</ele>
        <time>2020-12-18T18:24:01.017Z</time>
      </trkpt>
      <trkpt lat="50.38212" lon="3.24473">
        <ele>19.56687164307</ele>
        <time>2020-12-18T18:24:03.470Z</time>
      </trkpt>
      <trkpt lat="50.38179" lon="3.24474">
        <ele>20.75113677979</ele>
        <time>2020-12-18T18:24:05.930Z</time>
      </trkpt>
      <trkpt lat="50.38158" lon="3.24489">
        <ele>23.69995307922</ele>
        <time>2020-12-18T18:24:08.394Z</time>
      </trkpt>
      <trkpt lat="50.38152" lon="3.24507">
        <ele>25.42486190796</ele>
        <time>2020-12-18T18:24:10.861Z</time>
      </trkpt>
      <trkpt lat="50.38153" lon="3.24545">
        <ele>25.00445747375</ele>
        <time>2020-12-18T18:24:13.333Z</time>
      </trkpt>
      <trkpt lat="50.38143" lon="3.24603">
        <ele>23.90554428101</ele>
        <time>2020-12-18T18:24:15.812Z</time>
      </trkpt>
      <trkpt lat="50.38116" lon="3.24642">
        <ele>25.25524330139</ele>
        <time>2020-12-18T18:24:18.299Z</time>
      </trkpt>
      <trkpt lat="50.38076" lon="3.24644">
        <ele>28.72066879272</ele>
        <time>2020-12-18T18:24:20.794Z</time>
      </trkpt>
      <trkpt lat="50.38019" lon="3.24606">
        <ele>31.54351425171</ele>
        <time>2020-12-18T18:24:23.301Z</time>
      </trkpt>
      <trkpt lat="50.3805" lon="3.24649">
        <ele>29.75046539307</ele>
        <time>2020-12-18T18:24:25.816Z</time>
      </trkpt>
      <trkpt lat="50.38122" lon="3.24679">
        <ele>22.56313323975</ele>
        <time>2020-12-18T18:24:28.346Z</time>
      </trkpt>
      <trkpt lat="50.38124" lon="3.24687">
        <ele>22.16408729553</ele>
        <time>2020-12-18T18:24:30.877Z</time>
      </trkpt>
      <trkpt lat="50.38114" lon="3.24696">
        <ele>22.3957901001</ele>
        <time>2020-12-18T18:24:33.411Z</time>
      </trkpt>
      <trkpt lat="50.38036" lon="3.24681">
        <ele>26.17318534851</ele>
        <time>2020-12-18T18:24:35.960Z</time>
      </trkpt>
      <trkpt lat="50.37975" lon="3.24645">
        <ele>25.0756778717</ele>
        <time>2020-12-18T18:24:38.522Z</time>
      </trkpt>
      <trkpt lat="50.37925" lon="3.2464">
        <ele>21.50272369385</ele>
        <time>2020-12-18T18:24:41.095Z</time>
      </trkpt>
      <trkpt lat="50.37907" lon="3.24657">
        <ele>20.47292709351</ele>
        <time>2020-12-18T18:24:43.672Z</time>
      </trkpt>
      <trkpt lat="50.37905" lon="3.24664">
        <ele>20.20763397217</ele>
        <time>2020-12-18T18:24:46.250Z</time>
      </trkpt>
      <trkpt lat="50.37905" lon="3.24664">
        <ele>20.20944404602</ele>
        <time>2020-12-18T18:24:48.828Z</time>
      </trkpt>
      <trkpt lat="50.37891" lon="3.24695">
        <ele>19.08604240417</ele>
        <time>2020-12-18T18:24:51.411Z</time>
      </trkpt>
      <trkpt lat="50.37891" lon="3.24695">
        <ele>19.08563995361</ele>
        <time>2020-12-18T18:24:53.994Z</time>
      </trkpt>
      <trkpt lat="50.37869" lon="3.24725">
        <ele>18.34421348572</ele>
        <time>2020-12-18T18:24:56.583Z</time>
      </trkpt>
      <trkpt lat="50.37843" lon="3.2474">
        <ele>18.71472740173</ele>
        <time>2020-12-18T18:24:59.177Z</time>
      </trkpt>
      <trkpt lat="50.37766" lon="3.24717">
        <ele>20.25608253479</ele>
        <time>2020-12-18T18:25:01.787Z</time>
      </trkpt>
      <trkpt lat="50.37718" lon="3.24691">
        <ele>20.82327651978</ele>
        <time>2020-12-18T18:25:04.407Z</time>
      </trkpt>
      <trkpt lat="50.37691" lon="3.24694">
        <ele>20.24159431458</ele>
        <time>2020-12-18T18:25:07.032Z</time>
      </trkpt>
      <trkpt lat="50.37678" lon="3.24745">
        <ele>19.5572719574</ele>
        <time>2020-12-18T18:25:09.664Z</time>
      </trkpt>
      <trkpt lat="50.37677" lon="3.2475">
        <ele>19.54218673706</ele>
        <time>2020-12-18T18:25:12.297Z</time>
      </trkpt>
      <trkpt lat="50.37677" lon="3.2475">
        <ele>19.54198646545</ele>
        <time>2020-12-18T18:25:14.930Z</time>
      </trkpt>
      <trkpt lat="50.37678" lon="3.24745">
        <ele>19.55717086792</ele>
        <time>2020-12-18T18:25:17.564Z</time>
      </trkpt>
      <trkpt lat="50.37643" lon="3.24729">
        <ele>19.14525222778</ele>
        <time>2020-12-18T18:25:20.205Z</time>
      </trkpt>
      <trkpt lat="50.37641" lon="3.24608">
        <ele>20.93483161926</ele>
        <time>2020-12-18T18:25:22.861Z</time>
      </trkpt>
      <trkpt lat="50.3767" lon="3.24602">
        <ele>21</ele>
        <time>2020-12-18T18:25:25.523Z</time>
      </trkpt>
      <trkpt lat="50.37671" lon="3.2458">
        <ele>21.19546508789</ele>
        <time>2020-12-18T18:25:28.188Z</time>
      </trkpt>
      <trkpt lat="50.37711" lon="3.2444">
        <ele>21.9126663208</ele>
        <time>2020-12-18T18:25:30.873Z</time>
      </trkpt>
      <trkpt lat="50.37711" lon="3.24384">
        <ele>22.53825187683</ele>
        <time>2020-12-18T18:25:33.565Z</time>
      </trkpt>
      <trkpt lat="50.37708" lon="3.24295">
        <ele>24.49039840698</ele>
        <time>2020-12-18T18:25:36.268Z</time>
      </trkpt>
      <trkpt lat="50.377" lon="3.24244">
        <ele>25.41404533386</ele>
        <time>2020-12-18T18:25:38.978Z</time>
      </trkpt>
      <trkpt lat="50.3769" lon="3.24212">
        <ele>25.41464996338</ele>
        <time>2020-12-18T18:25:41.693Z</time>
      </trkpt>
      <trkpt lat="50.37639" lon="3.24128">
        <ele>21.94841194153</ele>
        <time>2020-12-18T18:25:44.422Z</time>
      </trkpt>
      <trkpt lat="50.37624" lon="3.24066">
        <ele>20.91354942322</ele>
        <time>2020-12-18T18:25:47.160Z</time>
      </trkpt>
      <trkpt lat="50.37622" lon="3.24033">
        <ele>20.88780403137</ele>
        <time>2020-12-18T18:25:49.902Z</time>
      </trkpt>
      <trkpt lat="50.37632" lon="3.24003">
        <ele>21.02559089661</ele>
        <time>2020-12-18T18:25:52.648Z</time>
      </trkpt>
      <trkpt lat="50.37653" lon="3.23968">
        <ele>22.82773399353</ele>
        <time>2020-12-18T18:25:55.401Z</time>
      </trkpt>
      <trkpt lat="50.37694" lon="3.23904">
        <ele>24.64054870605</ele>
        <time>2020-12-18T18:25:58.165Z</time>
      </trkpt>
      <trkpt lat="50.37705" lon="3.23891">
        <ele>24.72954940796</ele>
        <time>2020-12-18T18:26:00.932Z</time>
      </trkpt>
      <trkpt lat="50.37705" lon="3.23891">
        <ele>24.72965049744</ele>
        <time>2020-12-18T18:26:03.699Z</time>
      </trkpt>
      <trkpt lat="50.37951" lon="3.23605">
        <ele>20.66973495483</ele>
        <time>2020-12-18T18:26:06.527Z</time>
      </trkpt>
      <trkpt lat="50.37986" lon="3.23642">
        <ele>22.16515541077</ele>
        <time>2020-12-18T18:26:09.364Z</time>
      </trkpt>
      <trkpt lat="50.38011" lon="3.23656">
        <ele>23.28505897522</ele>
        <time>2020-12-18T18:26:12.206Z</time>
      </trkpt>
      <trkpt lat="50.38042" lon="3.23653">
        <ele>23.8900642395</ele>
        <time>2020-12-18T18:26:15.054Z</time>
      </trkpt>
      <trkpt lat="50.38083" lon="3.23674">
        <ele>24.39758300781</ele>
        <time>2020-12-18T18:26:17.911Z</time>
      </trkpt>
      <trkpt lat="50.38143" lon="3.23762">
        <ele>26.69953155518</ele>
        <time>2020-12-18T18:26:20.784Z</time>
      </trkpt>
      <trkpt lat="50.38226" lon="3.2384">
        <ele>29.00207328796</ele>
        <time>2020-12-18T18:26:23.677Z</time>
      </trkpt>
      <trkpt lat="50.38248" lon="3.23879">
        <ele>30.01912117004</ele>
        <time>2020-12-18T18:26:26.576Z</time>
      </trkpt>
      <trkpt lat="50.38256" lon="3.23913">
        <ele>30.9459400177</ele>
        <time>2020-12-18T18:26:29.480Z</time>
      </trkpt>
      <trkpt lat="50.3829" lon="3.23955">
        <ele>32.15425491333</ele>
        <time>2020-12-18T18:26:32.393Z</time>
      </trkpt>
      <trkpt lat="50.38286" lon="3.23937">
        <ele>30.99603462219</ele>
        <time>2020-12-18T18:26:35.308Z</time>
      </trkpt>
      <trkpt lat="50.38294" lon="3.23877">
        <ele>27.13556671143</ele>
        <time>2020-12-18T18:26:38.231Z</time>
      </trkpt>
      <trkpt lat="50.38309" lon="3.23844">
        <ele>24.39141082764</ele>
        <time>2020-12-18T18:26:41.159Z</time>
      </trkpt>
      <trkpt lat="50.38323" lon="3.23846">
        <ele>23.86517524719</ele>
        <time>2020-12-18T18:26:44.090Z</time>
      </trkpt>
      <trkpt lat="50.38323" lon="3.23846">
        <ele>23.86437225342</ele>
        <time>2020-12-18T18:26:47.021Z</time>
      </trkpt>
      <trkpt lat="50.38389" lon="3.23859">
        <ele>21.89628410339</ele>
        <time>2020-12-18T18:26:49.965Z</time>
      </trkpt>
      <trkpt lat="50.38399" lon="3.23859">
        <ele>21.61125946045</ele>
        <time>2020-12-18T18:26:52.911Z</time>
      </trkpt>
      <trkpt lat="50.38419" lon="3.23855">
        <ele>20.56859016418</ele>
        <time>2020-12-18T18:26:55.862Z</time>
      </trkpt>
      <trkpt lat="50.38427" lon="3.23855">
        <ele>20.29826927185</ele>
        <time>2020-12-18T18:26:58.814Z</time>
      </trkpt>
      <trkpt lat="50.38458" lon="3.2386">
        <ele>19.59058570862</ele>
        <time>2020-12-18T18:27:01.772Z</time>
      </trkpt>
      <trkpt lat="50.38458" lon="3.2386">
        <ele>19.59028434753</ele>
        <time>2020-12-18T18:27:04.730Z</time>
      </trkpt>
      <trkpt lat="50.38638" lon="3.23974">
        <ele>20.2433013916</ele>
        <time>2020-12-18T18:27:07.727Z</time>
      </trkpt>
      <trkpt lat="50.38671" lon="3.24021">
        <ele>19.61466217041</ele>
        <time>2020-12-18T18:27:10.733Z</time>
      </trkpt>
      <trkpt lat="50.38694" lon="3.24066">
        <ele>18.26305580139</ele>
        <time>2020-12-18T18:27:13.746Z</time>
      </trkpt>
      <trkpt lat="50.38692" lon="3.24113">
        <ele>19.43186378479</ele>
        <time>2020-12-18T18:27:16.766Z</time>
      </trkpt>
      <trkpt lat="50.38675" lon="3.242">
        <ele>23.32746696472</ele>
        <time>2020-12-18T18:27:19.797Z</time>
      </trkpt>
      <trkpt lat="50.38675" lon="3.242">
        <ele>23.32636070251</ele>
        <time>2020-12-18T18:27:22.828Z</time>
      </trkpt>
      <trkpt lat="50.38655" lon="3.24318">
        <ele>20.82977867126</ele>
        <time>2020-12-18T18:27:25.875Z</time>
      </trkpt>
      <trkpt lat="50.38655" lon="3.24318">
        <ele>20.82947731018</ele>
        <time>2020-12-18T18:27:28.922Z</time>
      </trkpt>
      <trkpt lat="50.38661" lon="3.24326">
        <ele>20.12149238586</ele>
        <time>2020-12-18T18:27:31.970Z</time>
      </trkpt>
      <trkpt lat="50.3867" lon="3.2434">
        <ele>18.93752861023</ele>
        <time>2020-12-18T18:27:35.021Z</time>
      </trkpt>
      <trkpt lat="50.3867" lon="3.2434">
        <ele>18.9372253418</ele>
        <time>2020-12-18T18:27:38.072Z</time>
      </trkpt>
      <trkpt lat="50.38696" lon="3.2435">
        <ele>17.6805973053</ele>
        <time>2020-12-18T18:27:41.128Z</time>
      </trkpt>
      <trkpt lat="50.38698" lon="3.24263">
        <ele>19.40068817139</ele>
        <time>2020-12-18T18:27:44.195Z</time>
      </trkpt>
      <trkpt lat="50.38699" lon="3.24259">
        <ele>19.46981620789</ele>
        <time>2020-12-18T18:27:47.263Z</time>
      </trkpt>
      <trkpt lat="50.38699" lon="3.24259">
        <ele>19.46991729736</ele>
        <time>2020-12-18T18:27:50.331Z</time>
      </trkpt>
      <trkpt lat="50.38783" lon="3.23975">
        <ele>18</ele>
        <time>2020-12-18T18:27:53.439Z</time>
      </trkpt>
      <trkpt lat="50.38791" lon="3.23807">
        <ele>18</ele>
        <time>2020-12-18T18:27:56.569Z</time>
      </trkpt>
      <trkpt lat="50.38796" lon="3.23782">
        <ele>18</ele>
        <time>2020-12-18T18:27:59.702Z</time>
      </trkpt>
      <trkpt lat="50.38832" lon="3.23585">
        <ele>19</ele>
        <time>2020-12-18T18:28:02.861Z</time>
      </trkpt>
      <trkpt lat="50.38835" lon="3.23557">
        <ele>19</ele>
        <time>2020-12-18T18:28:06.024Z</time>
      </trkpt>
      <trkpt lat="50.38858" lon="3.23559">
        <ele>19.15404701233</ele>
        <time>2020-12-18T18:28:09.191Z</time>
      </trkpt>
      <trkpt lat="50.38867" lon="3.23558">
        <ele>19.27000045776</ele>
        <time>2020-12-18T18:28:12.360Z</time>
      </trkpt>
      <trkpt lat="50.38882" lon="3.2353">
        <ele>19.79595947266</ele>
        <time>2020-12-18T18:28:15.534Z</time>
      </trkpt>
      <trkpt lat="50.38882" lon="3.2353">
        <ele>19.79575920105</ele>
        <time>2020-12-18T18:28:18.708Z</time>
      </trkpt>
      <trkpt lat="50.38907" lon="3.23483">
        <ele>19.64888381958</ele>
        <time>2020-12-18T18:28:21.890Z</time>
      </trkpt>
      <trkpt lat="50.38907" lon="3.23483">
        <ele>19.64888381958</ele>
        <time>2020-12-18T18:28:25.072Z</time>
      </trkpt>
      <trkpt lat="50.38957" lon="3.23317">
        <ele>19</ele>
        <time>2020-12-18T18:28:28.277Z</time>
      </trkpt>
      <trkpt lat="50.39015" lon="3.23228">
        <ele>19</ele>
        <time>2020-12-18T18:28:31.498Z</time>
      </trkpt>
      <trkpt lat="50.39063" lon="3.23162">
        <ele>18.97553253174</ele>
        <time>2020-12-18T18:28:34.732Z</time>
      </trkpt>
      <trkpt lat="50.3909" lon="3.23146">
        <ele>19.10425758362</ele>
        <time>2020-12-18T18:28:37.972Z</time>
      </trkpt>
      <trkpt lat="50.39125" lon="3.2314">
        <ele>19.45181465149</ele>
        <time>2020-12-18T18:28:41.219Z</time>
      </trkpt>
      <trkpt lat="50.39158" lon="3.23149">
        <ele>19.32438659668</ele>
        <time>2020-12-18T18:28:44.473Z</time>
      </trkpt>
      <trkpt lat="50.39182" lon="3.23111">
        <ele>18.57778358459</ele>
        <time>2020-12-18T18:28:47.734Z</time>
      </trkpt>
      <trkpt lat="50.39198" lon="3.23023">
        <ele>18</ele>
        <time>2020-12-18T18:28:51.006Z</time>
      </trkpt>
      <trkpt lat="50.39231" lon="3.22969">
        <ele>18.19649124146</ele>
        <time>2020-12-18T18:28:54.288Z</time>
      </trkpt>
      <trkpt lat="50.39208" lon="3.22938">
        <ele>18.08670425415</ele>
        <time>2020-12-18T18:28:57.576Z</time>
      </trkpt>
      <trkpt lat="50.39169" lon="3.22954">
        <ele>18.55011177063</ele>
        <time>2020-12-18T18:29:00.872Z</time>
      </trkpt>
      <trkpt lat="50.39135" lon="3.22936">
        <ele>18.91606903076</ele>
        <time>2020-12-18T18:29:04.175Z</time>
      </trkpt>
      <trkpt lat="50.39087" lon="3.22877">
        <ele>17.91741752625</ele>
        <time>2020-12-18T18:29:07.491Z</time>
      </trkpt>
      <trkpt lat="50.39047" lon="3.22843">
        <ele>17.01840209961</ele>
        <time>2020-12-18T18:29:10.816Z</time>
      </trkpt>
      <trkpt lat="50.39016" lon="3.22788">
        <ele>17.30159568787</ele>
        <time>2020-12-18T18:29:14.150Z</time>
      </trkpt>
      <trkpt lat="50.39001" lon="3.22757">
        <ele>17.42891120911</ele>
        <time>2020-12-18T18:29:17.489Z</time>
      </trkpt>
      <trkpt lat="50.38993" lon="3.22717">
        <ele>17.338804245</ele>
        <time>2020-12-18T18:29:20.833Z</time>
      </trkpt>
      <trkpt lat="50.38999" lon="3.22627">
        <ele>16.78204154968</ele>
        <time>2020-12-18T18:29:24.189Z</time>
      </trkpt>
      <trkpt lat="50.38999" lon="3.22627">
        <ele>16.78234291077</ele>
        <time>2020-12-18T18:29:27.545Z</time>
      </trkpt>
      <trkpt lat="50.39001" lon="3.22593">
        <ele>16.42891120911</ele>
        <time>2020-12-18T18:29:30.905Z</time>
      </trkpt>
      <trkpt lat="50.38988" lon="3.22515">
        <ele>16.03792572021</ele>
        <time>2020-12-18T18:29:34.276Z</time>
      </trkpt>
      <trkpt lat="50.39009" lon="3.22308">
        <ele>16.97834968567</ele>
        <time>2020-12-18T18:29:37.673Z</time>
      </trkpt>
      <trkpt lat="50.39012" lon="3.22214">
        <ele>17</ele>
        <time>2020-12-18T18:29:41.083Z</time>
      </trkpt>
      <trkpt lat="50.39022" lon="3.21211">
        <ele>16</ele>
        <time>2020-12-18T18:29:44.621Z</time>
      </trkpt>
      <trkpt lat="50.39014" lon="3.21115">
        <ele>15.65598773956</ele>
        <time>2020-12-18T18:29:48.171Z</time>
      </trkpt>
      <trkpt lat="50.38982" lon="3.20908">
        <ele>17.21008110046</ele>
        <time>2020-12-18T18:29:51.749Z</time>
      </trkpt>
      <trkpt lat="50.38825" lon="3.20453">
        <ele>16.29706192017</ele>
        <time>2020-12-18T18:29:55.393Z</time>
      </trkpt>
      <trkpt lat="50.38788" lon="3.20277">
        <ele>16.2396697998</ele>
        <time>2020-12-18T18:29:59.060Z</time>
      </trkpt>
      <trkpt lat="50.3878" lon="3.2016">
        <ele>17.53122138977</ele>
        <time>2020-12-18T18:30:02.743Z</time>
      </trkpt>
      <trkpt lat="50.38793" lon="3.20054">
        <ele>16.75179290771</ele>
        <time>2020-12-18T18:30:06.439Z</time>
      </trkpt>
      <trkpt lat="50.38794" lon="3.19855">
        <ele>21.32525634766</ele>
        <time>2020-12-18T18:30:10.161Z</time>
      </trkpt>
      <trkpt lat="50.38794" lon="3.19855">
        <ele>21.32626152039</ele>
        <time>2020-12-18T18:30:13.883Z</time>
      </trkpt>
      <trkpt lat="50.38794" lon="3.19855">
        <ele>21.32525634766</ele>
        <time>2020-12-18T18:30:17.605Z</time>
      </trkpt>
      <trkpt lat="50.38791" lon="3.19818">
        <ele>21.16530799866</ele>
        <time>2020-12-18T18:30:21.332Z</time>
      </trkpt>
      <trkpt lat="50.38882" lon="3.19826">
        <ele>23.53369522095</ele>
        <time>2020-12-18T18:30:25.077Z</time>
      </trkpt>
      <trkpt lat="50.38936" lon="3.19849">
        <ele>27.13321495056</ele>
        <time>2020-12-18T18:30:28.833Z</time>
      </trkpt>
      <trkpt lat="50.38975" lon="3.19885">
        <ele>28.41583061218</ele>
        <time>2020-12-18T18:30:32.598Z</time>
      </trkpt>
      <trkpt lat="50.39001" lon="3.19936">
        <ele>29.00238418579</ele>
        <time>2020-12-18T18:30:36.371Z</time>
      </trkpt>
      <trkpt lat="50.39009" lon="3.19984">
        <ele>29.27656936646</ele>
        <time>2020-12-18T18:30:40.151Z</time>
      </trkpt>
      <trkpt lat="50.39009" lon="3.19984">
        <ele>29.27626800537</ele>
        <time>2020-12-18T18:30:43.931Z</time>
      </trkpt>
      <trkpt lat="50.39009" lon="3.19984">
        <ele>29.27566337585</ele>
        <time>2020-12-18T18:30:47.711Z</time>
      </trkpt>
      <trkpt lat="50.39051" lon="3.20231">
        <ele>31.2382774353</ele>
        <time>2020-12-18T18:30:51.523Z</time>
      </trkpt>
      <trkpt lat="50.39064" lon="3.20279">
        <ele>30.28342437744</ele>
        <time>2020-12-18T18:30:55.342Z</time>
      </trkpt>
      <trkpt lat="50.39085" lon="3.20321">
        <ele>29.82001495361</ele>
        <time>2020-12-18T18:30:59.168Z</time>
      </trkpt>
      <trkpt lat="50.39102" lon="3.20341">
        <ele>30.08329772949</ele>
        <time>2020-12-18T18:31:02.998Z</time>
      </trkpt>
      <trkpt lat="50.39102" lon="3.20341">
        <ele>30.08309555054</ele>
        <time>2020-12-18T18:31:06.828Z</time>
      </trkpt>
      <trkpt lat="50.39085" lon="3.20321">
        <ele>29.82001495361</ele>
        <time>2020-12-18T18:31:10.662Z</time>
      </trkpt>
      <trkpt lat="50.39064" lon="3.20279">
        <ele>30.28342437744</ele>
        <time>2020-12-18T18:31:14.503Z</time>
      </trkpt>
      <trkpt lat="50.39051" lon="3.20231">
        <ele>31.2382774353</ele>
        <time>2020-12-18T18:31:18.351Z</time>
      </trkpt>
      <trkpt lat="50.39001" lon="3.19936">
        <ele>29.00238418579</ele>
        <time>2020-12-18T18:31:22.238Z</time>
      </trkpt>
      <trkpt lat="50.38975" lon="3.19885">
        <ele>28.41583061218</ele>
        <time>2020-12-18T18:31:26.133Z</time>
      </trkpt>
      <trkpt lat="50.38936" lon="3.19849">
        <ele>27.13321495056</ele>
        <time>2020-12-18T18:31:30.037Z</time>
      </trkpt>
      <trkpt lat="50.38882" lon="3.19826">
        <ele>23.53369522095</ele>
        <time>2020-12-18T18:31:33.953Z</time>
      </trkpt>
      <trkpt lat="50.38791" lon="3.19818">
        <ele>21.16430282593</ele>
        <time>2020-12-18T18:31:37.887Z</time>
      </trkpt>
      <trkpt lat="50.38784" lon="3.19738">
        <ele>20.25305366516</ele>
        <time>2020-12-18T18:31:41.831Z</time>
      </trkpt>
      <trkpt lat="50.38791" lon="3.19675">
        <ele>18.69548606873</ele>
        <time>2020-12-18T18:31:45.783Z</time>
      </trkpt>
      <trkpt lat="50.38972" lon="3.18982">
        <ele>15.91854381561</ele>
        <time>2020-12-18T18:31:49.831Z</time>
      </trkpt>
      <trkpt lat="50.38972" lon="3.18982">
        <ele>15.91864395142</ele>
        <time>2020-12-18T18:31:53.879Z</time>
      </trkpt>
      <trkpt lat="50.38992" lon="3.18905">
        <ele>16</ele>
        <time>2020-12-18T18:31:57.938Z</time>
      </trkpt>
      <trkpt lat="50.38992" lon="3.18905">
        <ele>16</ele>
        <time>2020-12-18T18:32:01.997Z</time>
      </trkpt>
      <trkpt lat="50.39091" lon="3.18533">
        <ele>17.01986885071</ele>
        <time>2020-12-18T18:32:06.107Z</time>
      </trkpt>
      <trkpt lat="50.39083" lon="3.18528">
        <ele>16.85282897949</ele>
        <time>2020-12-18T18:32:10.219Z</time>
      </trkpt>
      <trkpt lat="50.39064" lon="3.18513">
        <ele>16.51814460754</ele>
        <time>2020-12-18T18:32:14.335Z</time>
      </trkpt>
      <trkpt lat="50.39106" lon="3.18368">
        <ele>16.65382957458</ele>
        <time>2020-12-18T18:32:18.472Z</time>
      </trkpt>
      <trkpt lat="50.3936" lon="3.17389">
        <ele>18.48237037659</ele>
        <time>2020-12-18T18:32:22.744Z</time>
      </trkpt>
      <trkpt lat="50.3936" lon="3.17389">
        <ele>18.48257255554</ele>
        <time>2020-12-18T18:32:27.016Z</time>
      </trkpt>
      <trkpt lat="50.39408" lon="3.17194">
        <ele>18.35910797119</ele>
        <time>2020-12-18T18:32:31.315Z</time>
      </trkpt>
      <trkpt lat="50.39468" lon="3.16982">
        <ele>18.34533882141</ele>
        <time>2020-12-18T18:32:35.643Z</time>
      </trkpt>
      <trkpt lat="50.39492" lon="3.16882">
        <ele>19.55534934998</ele>
        <time>2020-12-18T18:32:39.985Z</time>
      </trkpt>
      <trkpt lat="50.395" lon="3.16822">
        <ele>19.72379302979</ele>
        <time>2020-12-18T18:32:44.335Z</time>
      </trkpt>
      <trkpt lat="50.39504" lon="3.16692">
        <ele>19.93218994141</ele>
        <time>2020-12-18T18:32:48.702Z</time>
      </trkpt>
      <trkpt lat="50.39496" lon="3.16591">
        <ele>18.37598800659</ele>
        <time>2020-12-18T18:32:53.082Z</time>
      </trkpt>
      <trkpt lat="50.39496" lon="3.16517">
        <ele>17.76004219055</ele>
        <time>2020-12-18T18:32:57.471Z</time>
      </trkpt>
      <trkpt lat="50.39496" lon="3.16517">
        <ele>17.75994110107</ele>
        <time>2020-12-18T18:33:01.860Z</time>
      </trkpt>
      <trkpt lat="50.39496" lon="3.16517">
        <ele>17.76004219055</ele>
        <time>2020-12-18T18:33:06.249Z</time>
      </trkpt>
      <trkpt lat="50.39501" lon="3.16517">
        <ele>17.70855140686</ele>
        <time>2020-12-18T18:33:10.639Z</time>
      </trkpt>
      <trkpt lat="50.39516" lon="3.16519">
        <ele>17.57982826233</ele>
        <time>2020-12-18T18:33:15.032Z</time>
      </trkpt>
      <trkpt lat="50.39551" lon="3.16533">
        <ele>17.45723724365</ele>
        <time>2020-12-18T18:33:19.432Z</time>
      </trkpt>
      <trkpt lat="50.3956" lon="3.16555">
        <ele>17.7919216156</ele>
        <time>2020-12-18T18:33:23.836Z</time>
      </trkpt>
      <trkpt lat="50.39567" lon="3.16575">
        <ele>18.07491493225</ele>
        <time>2020-12-18T18:33:28.243Z</time>
      </trkpt>
      <trkpt lat="50.39567" lon="3.16575">
        <ele>18.07511520386</ele>
        <time>2020-12-18T18:33:32.650Z</time>
      </trkpt>
      <trkpt lat="50.39577" lon="3.16574">
        <ele>17.81766700745</ele>
        <time>2020-12-18T18:33:37.058Z</time>
      </trkpt>
      <trkpt lat="50.39583" lon="3.16563">
        <ele>17.40574836731</ele>
        <time>2020-12-18T18:33:41.468Z</time>
      </trkpt>
      <trkpt lat="50.39615" lon="3.16514">
        <ele>17.77543258667</ele>
        <time>2020-12-18T18:33:45.887Z</time>
      </trkpt>
      <trkpt lat="50.39715" lon="3.16358">
        <ele>18</ele>
        <time>2020-12-18T18:33:50.335Z</time>
      </trkpt>
      <trkpt lat="50.39779" lon="3.16254">
        <ele>19</ele>
        <time>2020-12-18T18:33:54.801Z</time>
      </trkpt>
      <trkpt lat="50.39787" lon="3.16238">
        <ele>19</ele>
        <time>2020-12-18T18:33:59.270Z</time>
      </trkpt>
      <trkpt lat="50.39851" lon="3.16252">
        <ele>18.36322975159</ele>
        <time>2020-12-18T18:34:03.752Z</time>
      </trkpt>
      <trkpt lat="50.39893" lon="3.16282">
        <ele>17.97135353088</ele>
        <time>2020-12-18T18:34:08.243Z</time>
      </trkpt>
      <trkpt lat="50.39919" lon="3.16317">
        <ele>17.77826499939</ele>
        <time>2020-12-18T18:34:12.741Z</time>
      </trkpt>
      <trkpt lat="50.39954" lon="3.16412">
        <ele>17.254945755</ele>
        <time>2020-12-18T18:34:17.253Z</time>
      </trkpt>
      <trkpt lat="50.40022" lon="3.16487">
        <ele>16.31650733948</ele>
        <time>2020-12-18T18:34:21.781Z</time>
      </trkpt>
      <trkpt lat="50.40045" lon="3.16525">
        <ele>16.04618644714</ele>
        <time>2020-12-18T18:34:26.316Z</time>
      </trkpt>
      <trkpt lat="50.40047" lon="3.1653">
        <ele>16.0204410553</ele>
        <time>2020-12-18T18:34:30.852Z</time>
      </trkpt>
      <trkpt lat="50.40152" lon="3.16431">
        <ele>16.96178245544</ele>
        <time>2020-12-18T18:34:35.412Z</time>
      </trkpt>
      <trkpt lat="50.40189" lon="3.1644">
        <ele>16.85880279541</ele>
        <time>2020-12-18T18:34:39.980Z</time>
      </trkpt>
      <trkpt lat="50.40263" lon="3.16375">
        <ele>16.42312240601</ele>
        <time>2020-12-18T18:34:44.565Z</time>
      </trkpt>
      <trkpt lat="50.40263" lon="3.16375">
        <ele>16.42302131653</ele>
        <time>2020-12-18T18:34:49.150Z</time>
      </trkpt>
      <trkpt lat="50.40277" lon="3.16362">
        <ele>16.2528629303</ele>
        <time>2020-12-18T18:34:53.738Z</time>
      </trkpt>
      <trkpt lat="50.40291" lon="3.1631">
        <ele>16.085521698</ele>
        <time>2020-12-18T18:34:58.333Z</time>
      </trkpt>
      <trkpt lat="50.40328" lon="3.16243">
        <ele>15.64785766602</ele>
        <time>2020-12-18T18:35:02.940Z</time>
      </trkpt>
      <trkpt lat="50.40381" lon="3.16097">
        <ele>15.96935081482</ele>
        <time>2020-12-18T18:35:07.568Z</time>
      </trkpt>
      <trkpt lat="50.4044" lon="3.15971">
        <ele>16.18781661987</ele>
        <time>2020-12-18T18:35:12.216Z</time>
      </trkpt>
      <trkpt lat="50.40463" lon="3.15935">
        <ele>16.88292884827</ele>
        <time>2020-12-18T18:35:16.871Z</time>
      </trkpt>
      <trkpt lat="50.40504" lon="3.15896">
        <ele>17.84836387634</ele>
        <time>2020-12-18T18:35:21.535Z</time>
      </trkpt>
      <trkpt lat="50.40532" lon="3.15873">
        <ele>18.45336914062</ele>
        <time>2020-12-18T18:35:26.205Z</time>
      </trkpt>
      <trkpt lat="50.4056" lon="3.15869">
        <ele>18.70694923401</ele>
        <time>2020-12-18T18:35:30.881Z</time>
      </trkpt>
      <trkpt lat="50.40569" lon="3.15834">
        <ele>18.75155448914</ele>
        <time>2020-12-18T18:35:35.562Z</time>
      </trkpt>
      <trkpt lat="50.40584" lon="3.15579">
        <ele>19</ele>
        <time>2020-12-18T18:35:40.276Z</time>
      </trkpt>
      <trkpt lat="50.40727" lon="3.1555">
        <ele>19.5300693512</ele>
        <time>2020-12-18T18:35:45.019Z</time>
      </trkpt>
      <trkpt lat="50.40765" lon="3.15539">
        <ele>19.65879440308</ele>
        <time>2020-12-18T18:35:49.769Z</time>
      </trkpt>
      <trkpt lat="50.40827" lon="3.15522">
        <ele>19.66206359863</ele>
        <time>2020-12-18T18:35:54.532Z</time>
      </trkpt>
      <trkpt lat="50.40948" lon="3.15531">
        <ele>19</ele>
        <time>2020-12-18T18:35:59.319Z</time>
      </trkpt>
      <trkpt lat="50.41057" lon="3.15565">
        <ele>19</ele>
        <time>2020-12-18T18:36:04.128Z</time>
      </trkpt>
      <trkpt lat="50.41161" lon="3.15573">
        <ele>18.64595794678</ele>
        <time>2020-12-18T18:36:08.958Z</time>
      </trkpt>
      <trkpt lat="50.41204" lon="3.15568">
        <ele>18.13105964661</ele>
        <time>2020-12-18T18:36:13.797Z</time>
      </trkpt>
      <trkpt lat="50.41222" lon="3.15572">
        <ele>17.92510032654</ele>
        <time>2020-12-18T18:36:18.639Z</time>
      </trkpt>
      <trkpt lat="50.41223" lon="3.15573">
        <ele>17.91212654114</ele>
        <time>2020-12-18T18:36:23.482Z</time>
      </trkpt>
      <trkpt lat="50.41233" lon="3.15571">
        <ele>17.78340339661</ele>
        <time>2020-12-18T18:36:28.327Z</time>
      </trkpt>
      <trkpt lat="50.41237" lon="3.15564">
        <ele>17.74488639832</ele>
        <time>2020-12-18T18:36:33.173Z</time>
      </trkpt>
      <trkpt lat="50.41234" lon="3.15548">
        <ele>17.77062988281</ele>
        <time>2020-12-18T18:36:38.021Z</time>
      </trkpt>
      <trkpt lat="50.41225" lon="3.15544">
        <ele>17.88648223877</ele>
        <time>2020-12-18T18:36:42.871Z</time>
      </trkpt>
      <trkpt lat="50.41296" lon="3.15036">
        <ele>17.036901474</ele>
        <time>2020-12-18T18:36:47.787Z</time>
      </trkpt>
      <trkpt lat="50.41298" lon="3.15023">
        <ele>17.01115608215</ele>
        <time>2020-12-18T18:36:52.705Z</time>
      </trkpt>
      <trkpt lat="50.413" lon="3.15017">
        <ele>17.01458930969</ele>
        <time>2020-12-18T18:36:57.624Z</time>
      </trkpt>
      <trkpt lat="50.41302" lon="3.15015">
        <ele>17.04033470154</ele>
        <time>2020-12-18T18:37:02.544Z</time>
      </trkpt>
      <trkpt lat="50.41313" lon="3.14814">
        <ele>19.16905784607</ele>
        <time>2020-12-18T18:37:07.489Z</time>
      </trkpt>
      <trkpt lat="50.41348" lon="3.14512">
        <ele>18.59384918213</ele>
        <time>2020-12-18T18:37:12.474Z</time>
      </trkpt>
      <trkpt lat="50.41369" lon="3.14426">
        <ele>19.67685317993</ele>
        <time>2020-12-18T18:37:17.470Z</time>
      </trkpt>
      <trkpt lat="50.41405" lon="3.14208">
        <ele>20.27609062195</ele>
        <time>2020-12-18T18:37:22.495Z</time>
      </trkpt>
      <trkpt lat="50.41417" lon="3.1399">
        <ele>20.49998664856</ele>
        <time>2020-12-18T18:37:27.548Z</time>
      </trkpt>
      <trkpt lat="50.41417" lon="3.13982">
        <ele>20.615234375</ele>
        <time>2020-12-18T18:37:32.602Z</time>
      </trkpt>
      <trkpt lat="50.41417" lon="3.13982">
        <ele>20.61573791504</ele>
        <time>2020-12-18T18:37:37.656Z</time>
      </trkpt>
      <trkpt lat="50.41422" lon="3.13882">
        <ele>21.48204994202</ele>
        <time>2020-12-18T18:37:42.723Z</time>
      </trkpt>
      <trkpt lat="50.41419" lon="3.13881">
        <ele>21.44353294373</ele>
        <time>2020-12-18T18:37:47.791Z</time>
      </trkpt>
      <trkpt lat="50.41401" lon="3.13873">
        <ele>21.09892272949</ele>
        <time>2020-12-18T18:37:52.863Z</time>
      </trkpt>
      <trkpt lat="50.41393" lon="3.13859">
        <ele>21.08605003357</ele>
        <time>2020-12-18T18:37:57.937Z</time>
      </trkpt>
      <trkpt lat="50.41391" lon="3.13822">
        <ele>21.10884857178</ele>
        <time>2020-12-18T18:38:03.016Z</time>
      </trkpt>
      <trkpt lat="50.41418" lon="3.13757">
        <ele>21.86132049561</ele>
        <time>2020-12-18T18:38:08.104Z</time>
      </trkpt>
      <trkpt lat="50.41426" lon="3.13759">
        <ele>22.06707763672</ele>
        <time>2020-12-18T18:38:13.194Z</time>
      </trkpt>
      <trkpt lat="50.41429" lon="3.13749">
        <ele>22.11856842041</ele>
        <time>2020-12-18T18:38:18.286Z</time>
      </trkpt>
      <trkpt lat="50.41422" lon="3.1374">
        <ele>21.96409797668</ele>
        <time>2020-12-18T18:38:23.379Z</time>
      </trkpt>
      <trkpt lat="50.41417" lon="3.13746">
        <ele>21.83537483215</ele>
        <time>2020-12-18T18:38:28.474Z</time>
      </trkpt>
      <trkpt lat="50.41407" lon="3.13727">
        <ele>21.60367012024</ele>
        <time>2020-12-18T18:38:33.572Z</time>
      </trkpt>
      <trkpt lat="50.41411" lon="3.13708">
        <ele>21.70664978027</ele>
        <time>2020-12-18T18:38:38.672Z</time>
      </trkpt>
      <trkpt lat="50.41396" lon="3.13609">
        <ele>22.16256713867</ele>
        <time>2020-12-18T18:38:43.785Z</time>
      </trkpt>
      <trkpt lat="50.41396" lon="3.13576">
        <ele>22</ele>
        <time>2020-12-18T18:38:48.903Z</time>
      </trkpt>
      <trkpt lat="50.41402" lon="3.13577">
        <ele>22</ele>
        <time>2020-12-18T18:38:54.022Z</time>
      </trkpt>
      <trkpt lat="50.41403" lon="3.13541">
        <ele>22</ele>
        <time>2020-12-18T18:38:59.145Z</time>
      </trkpt>
      <trkpt lat="50.41403" lon="3.13517">
        <ele>22</ele>
        <time>2020-12-18T18:39:04.271Z</time>
      </trkpt>
      <trkpt lat="50.41404" lon="3.13496">
        <ele>22</ele>
        <time>2020-12-18T18:39:09.400Z</time>
      </trkpt>
      <trkpt lat="50.41405" lon="3.13471">
        <ele>22</ele>
        <time>2020-12-18T18:39:14.532Z</time>
      </trkpt>
      <trkpt lat="50.41405" lon="3.13471">
        <ele>22</ele>
        <time>2020-12-18T18:39:19.664Z</time>
      </trkpt>
      <trkpt lat="50.41409" lon="3.13343">
        <ele>22.31886482239</ele>
        <time>2020-12-18T18:39:24.813Z</time>
      </trkpt>
      <trkpt lat="50.41346" lon="3.13322">
        <ele>21.73383522034</ele>
        <time>2020-12-18T18:39:29.975Z</time>
      </trkpt>
      <trkpt lat="50.41346" lon="3.13322">
        <ele>21.73383522034</ele>
        <time>2020-12-18T18:39:35.137Z</time>
      </trkpt>
      <trkpt lat="50.41352" lon="3.13267">
        <ele>21.07733917236</ele>
        <time>2020-12-18T18:39:40.306Z</time>
      </trkpt>
      <trkpt lat="50.41401" lon="3.13142">
        <ele>20.77540016174</ele>
        <time>2020-12-18T18:39:45.493Z</time>
      </trkpt>
      <trkpt lat="50.41328" lon="3.1306">
        <ele>21</ele>
        <time>2020-12-18T18:39:50.698Z</time>
      </trkpt>
      <trkpt lat="50.41325" lon="3.12995">
        <ele>20.80773544312</ele>
        <time>2020-12-18T18:39:55.912Z</time>
      </trkpt>
      <trkpt lat="50.41325" lon="3.1296">
        <ele>20.39581680298</ele>
        <time>2020-12-18T18:40:01.130Z</time>
      </trkpt>
      <trkpt lat="50.41331" lon="3.12929">
        <ele>20.38788986206</ele>
        <time>2020-12-18T18:40:06.352Z</time>
      </trkpt>
      <trkpt lat="50.41317" lon="3.12886">
        <ele>20.22054862976</ele>
        <time>2020-12-18T18:40:11.580Z</time>
      </trkpt>
      <trkpt lat="50.41239" lon="3.12726">
        <ele>17.87047958374</ele>
        <time>2020-12-18T18:40:16.834Z</time>
      </trkpt>
      <trkpt lat="50.41043" lon="3.12138">
        <ele>17.77412796021</ele>
        <time>2020-12-18T18:40:22.173Z</time>
      </trkpt>
      <trkpt lat="50.40992" lon="3.11977">
        <ele>19.28445243835</ele>
        <time>2020-12-18T18:40:27.535Z</time>
      </trkpt>
      <trkpt lat="50.40988" lon="3.11982">
        <ele>19.38743209839</ele>
        <time>2020-12-18T18:40:32.898Z</time>
      </trkpt>
      <trkpt lat="50.40986" lon="3.11979">
        <ele>19.37455940247</ele>
        <time>2020-12-18T18:40:38.262Z</time>
      </trkpt>
      <trkpt lat="50.40963" lon="3.11984">
        <ele>19.86164283752</ele>
        <time>2020-12-18T18:40:43.630Z</time>
      </trkpt>
      <trkpt lat="50.40963" lon="3.11984">
        <ele>19.86244773865</ele>
        <time>2020-12-18T18:40:48.998Z</time>
      </trkpt>
      <trkpt lat="50.40948" lon="3.11987">
        <ele>20.96595954895</ele>
        <time>2020-12-18T18:40:54.369Z</time>
      </trkpt>
      <trkpt lat="50.40909" lon="3.11972">
        <ele>24.41026496887</ele>
        <time>2020-12-18T18:40:59.748Z</time>
      </trkpt>
      <trkpt lat="50.4076" lon="3.11916">
        <ele>29.33117294312</ele>
        <time>2020-12-18T18:41:05.158Z</time>
      </trkpt>
      <trkpt lat="50.40726" lon="3.11914">
        <ele>29.71734619141</ele>
        <time>2020-12-18T18:41:10.575Z</time>
      </trkpt>
      <trkpt lat="50.40671" lon="3.11879">
        <ele>29.94905090332</ele>
        <time>2020-12-18T18:41:16.004Z</time>
      </trkpt>
      <trkpt lat="50.4059" lon="3.11844">
        <ele>30</ele>
        <time>2020-12-18T18:41:21.450Z</time>
      </trkpt>
      <trkpt lat="50.40564" lon="3.11838">
        <ele>29.92680168152</ele>
        <time>2020-12-18T18:41:26.901Z</time>
      </trkpt>
      <trkpt lat="50.40564" lon="3.11838">
        <ele>29.92680168152</ele>
        <time>2020-12-18T18:41:32.352Z</time>
      </trkpt>
      <trkpt lat="50.40495" lon="3.1182">
        <ele>29.77693748474</ele>
        <time>2020-12-18T18:41:37.817Z</time>
      </trkpt>
      <trkpt lat="50.40383" lon="3.1177">
        <ele>24.5072593689</ele>
        <time>2020-12-18T18:41:43.305Z</time>
      </trkpt>
      <trkpt lat="50.40359" lon="3.11764">
        <ele>23.89754867554</ele>
        <time>2020-12-18T18:41:48.798Z</time>
      </trkpt>
      <trkpt lat="50.40315" lon="3.11732">
        <ele>22.51137733459</ele>
        <time>2020-12-18T18:41:54.301Z</time>
      </trkpt>
      <trkpt lat="50.40276" lon="3.11691">
        <ele>21.60103416443</ele>
        <time>2020-12-18T18:41:59.813Z</time>
      </trkpt>
      <trkpt lat="50.40258" lon="3.11664">
        <ele>21.63867950439</ele>
        <time>2020-12-18T18:42:05.330Z</time>
      </trkpt>
      <trkpt lat="50.40191" lon="3.11499">
        <ele>24.5007019043</ele>
        <time>2020-12-18T18:42:10.872Z</time>
      </trkpt>
      <trkpt lat="50.40187" lon="3.11489">
        <ele>25.35028266907</ele>
        <time>2020-12-18T18:42:16.416Z</time>
      </trkpt>
      <trkpt lat="50.40186" lon="3.11483">
        <ele>25.94241714478</ele>
        <time>2020-12-18T18:42:21.960Z</time>
      </trkpt>
      <trkpt lat="50.40191" lon="3.11457">
        <ele>29.88876533508</ele>
        <time>2020-12-18T18:42:27.508Z</time>
      </trkpt>
      <trkpt lat="50.40208" lon="3.11438">
        <ele>33.90497207642</ele>
        <time>2020-12-18T18:42:33.060Z</time>
      </trkpt>
      <trkpt lat="50.40224" lon="3.11428">
        <ele>35.30628585815</ele>
        <time>2020-12-18T18:42:38.616Z</time>
      </trkpt>
      <trkpt lat="50.40224" lon="3.11428">
        <ele>35.3067855835</ele>
        <time>2020-12-18T18:42:44.172Z</time>
      </trkpt>
      <trkpt lat="50.40374" lon="3.1134">
        <ele>38.01243972778</ele>
        <time>2020-12-18T18:42:49.760Z</time>
      </trkpt>
      <trkpt lat="50.40418" lon="3.11296">
        <ele>41.64520645142</ele>
        <time>2020-12-18T18:42:55.358Z</time>
      </trkpt>
      <trkpt lat="50.40481" lon="3.11269">
        <ele>41.01821136475</ele>
        <time>2020-12-18T18:43:00.969Z</time>
      </trkpt>
      <trkpt lat="50.40531" lon="3.11237">
        <ele>37.22534179688</ele>
        <time>2020-12-18T18:43:06.591Z</time>
      </trkpt>
      <trkpt lat="50.40538" lon="3.11181">
        <ele>41.2672958374</ele>
        <time>2020-12-18T18:43:12.220Z</time>
      </trkpt>
      <trkpt lat="50.40557" lon="3.11133">
        <ele>39.70662307739</ele>
        <time>2020-12-18T18:43:17.856Z</time>
      </trkpt>
      <trkpt lat="50.40566" lon="3.1105">
        <ele>41.6622467041</ele>
        <time>2020-12-18T18:43:23.503Z</time>
      </trkpt>
      <trkpt lat="50.40584" lon="3.11009">
        <ele>37.57787704468</ele>
        <time>2020-12-18T18:43:29.157Z</time>
      </trkpt>
      <trkpt lat="50.40586" lon="3.10966">
        <ele>33.35571289062</ele>
        <time>2020-12-18T18:43:34.816Z</time>
      </trkpt>
      <trkpt lat="50.40564" lon="3.10905">
        <ele>35.83118438721</ele>
        <time>2020-12-18T18:43:40.484Z</time>
      </trkpt>
      <trkpt lat="50.40564" lon="3.10905">
        <ele>35.83239364624</ele>
        <time>2020-12-18T18:43:46.152Z</time>
      </trkpt>
      <trkpt lat="50.40545" lon="3.10851">
        <ele>35.91235733032</ele>
        <time>2020-12-18T18:43:51.828Z</time>
      </trkpt>
      <trkpt lat="50.40522" lon="3.10837">
        <ele>36.75577163696</ele>
        <time>2020-12-18T18:43:57.509Z</time>
      </trkpt>
      <trkpt lat="50.40483" lon="3.10778">
        <ele>33.38859939575</ele>
        <time>2020-12-18T18:44:03.201Z</time>
      </trkpt>
      <trkpt lat="50.40413" lon="3.1072">
        <ele>30.67028236389</ele>
        <time>2020-12-18T18:44:08.909Z</time>
      </trkpt>
      <trkpt lat="50.40366" lon="3.10716">
        <ele>32.9017906189</ele>
        <time>2020-12-18T18:44:14.626Z</time>
      </trkpt>
      <trkpt lat="50.40305" lon="3.10737">
        <ele>37.38296508789</ele>
        <time>2020-12-18T18:44:20.356Z</time>
      </trkpt>
      <trkpt lat="50.40305" lon="3.10737">
        <ele>37.38276290894</ele>
        <time>2020-12-18T18:44:26.086Z</time>
      </trkpt>
      <trkpt lat="50.40297" lon="3.1074">
        <ele>37.80932617188</ele>
        <time>2020-12-18T18:44:31.817Z</time>
      </trkpt>
      <trkpt lat="50.40247" lon="3.10793">
        <ele>41.58176040649</ele>
        <time>2020-12-18T18:44:37.560Z</time>
      </trkpt>
      <trkpt lat="50.40183" lon="3.10817">
        <ele>36.92199325562</ele>
        <time>2020-12-18T18:44:43.317Z</time>
      </trkpt>
      <trkpt lat="50.4017" lon="3.10859">
        <ele>38.00535202026</ele>
        <time>2020-12-18T18:44:49.080Z</time>
      </trkpt>
      <trkpt lat="50.40124" lon="3.1088">
        <ele>31.49110031128</ele>
        <time>2020-12-18T18:44:54.852Z</time>
      </trkpt>
      <trkpt lat="50.40109" lon="3.10898">
        <ele>31.94163513184</ele>
        <time>2020-12-18T18:45:00.628Z</time>
      </trkpt>
      <trkpt lat="50.40097" lon="3.10897">
        <ele>30.65684700012</ele>
        <time>2020-12-18T18:45:06.406Z</time>
      </trkpt>
      <trkpt lat="50.40096" lon="3.10907">
        <ele>30.61943626404</ele>
        <time>2020-12-18T18:45:12.186Z</time>
      </trkpt>
      <trkpt lat="50.40108" lon="3.10939">
        <ele>33.56820678711</ele>
        <time>2020-12-18T18:45:17.970Z</time>
      </trkpt>
      <trkpt lat="50.4014" lon="3.10972">
        <ele>42.18915939331</ele>
        <time>2020-12-18T18:45:23.762Z</time>
      </trkpt>
      <trkpt lat="50.40162" lon="3.10983">
        <ele>49.26901245117</ele>
        <time>2020-12-18T18:45:29.559Z</time>
      </trkpt>
      <trkpt lat="50.40212" lon="3.10917">
        <ele>53.16910934448</ele>
        <time>2020-12-18T18:45:35.369Z</time>
      </trkpt>
      <trkpt lat="50.40212" lon="3.10917">
        <ele>53.16870880127</ele>
        <time>2020-12-18T18:45:41.179Z</time>
      </trkpt>
      <trkpt lat="50.40237" lon="3.10885">
        <ele>52.8591003418</ele>
        <time>2020-12-18T18:45:46.995Z</time>
      </trkpt>
      <trkpt lat="50.4025" lon="3.1088">
        <ele>54.15922164917</ele>
        <time>2020-12-18T18:45:52.814Z</time>
      </trkpt>
      <trkpt lat="50.40287" lon="3.10887">
        <ele>60.3338470459</ele>
        <time>2020-12-18T18:45:58.640Z</time>
      </trkpt>
      <trkpt lat="50.40304" lon="3.10895">
        <ele>63.08131027222</ele>
        <time>2020-12-18T18:46:04.470Z</time>
      </trkpt>
      <trkpt lat="50.40312" lon="3.10906">
        <ele>64.84483337402</ele>
        <time>2020-12-18T18:46:10.302Z</time>
      </trkpt>
      <trkpt lat="50.40311" lon="3.10917">
        <ele>66.67272949219</ele>
        <time>2020-12-18T18:46:16.136Z</time>
      </trkpt>
      <trkpt lat="50.40259" lon="3.10976">
        <ele>70.06027984619</ele>
        <time>2020-12-18T18:46:21.982Z</time>
      </trkpt>
      <trkpt lat="50.40259" lon="3.10988">
        <ele>71.75944519043</ele>
        <time>2020-12-18T18:46:27.830Z</time>
      </trkpt>
      <trkpt lat="50.40297" lon="3.10981">
        <ele>76.7707824707</ele>
        <time>2020-12-18T18:46:33.685Z</time>
      </trkpt>
      <trkpt lat="50.40414" lon="3.10999">
        <ele>77.38998413086</ele>
        <time>2020-12-18T18:46:39.564Z</time>
      </trkpt>
      <trkpt lat="50.40424" lon="3.11003">
        <ele>76.61884307861</ele>
        <time>2020-12-18T18:46:45.445Z</time>
      </trkpt>
      <trkpt lat="50.40426" lon="3.11017">
        <ele>77.22889709473</ele>
        <time>2020-12-18T18:46:51.328Z</time>
      </trkpt>
      <trkpt lat="50.40426" lon="3.11017">
        <ele>77.23262023926</ele>
        <time>2020-12-18T18:46:57.211Z</time>
      </trkpt>
      <trkpt lat="50.40424" lon="3.11003">
        <ele>76.61884307861</ele>
        <time>2020-12-18T18:47:03.096Z</time>
      </trkpt>
      <trkpt lat="50.40414" lon="3.10999">
        <ele>77.38998413086</ele>
        <time>2020-12-18T18:47:08.983Z</time>
      </trkpt>
      <trkpt lat="50.40297" lon="3.10981">
        <ele>76.7707824707</ele>
        <time>2020-12-18T18:47:14.893Z</time>
      </trkpt>
      <trkpt lat="50.40259" lon="3.10988">
        <ele>71.75944519043</ele>
        <time>2020-12-18T18:47:20.811Z</time>
      </trkpt>
      <trkpt lat="50.40259" lon="3.10976">
        <ele>70.06027984619</ele>
        <time>2020-12-18T18:47:26.730Z</time>
      </trkpt>
      <trkpt lat="50.40311" lon="3.10917">
        <ele>66.67272949219</ele>
        <time>2020-12-18T18:47:32.662Z</time>
      </trkpt>
      <trkpt lat="50.40312" lon="3.10906">
        <ele>64.84483337402</ele>
        <time>2020-12-18T18:47:38.596Z</time>
      </trkpt>
      <trkpt lat="50.40304" lon="3.10895">
        <ele>63.08131027222</ele>
        <time>2020-12-18T18:47:44.532Z</time>
      </trkpt>
      <trkpt lat="50.40287" lon="3.10887">
        <ele>60.3338470459</ele>
        <time>2020-12-18T18:47:50.471Z</time>
      </trkpt>
      <trkpt lat="50.4025" lon="3.1088">
        <ele>54.15922164917</ele>
        <time>2020-12-18T18:47:56.418Z</time>
      </trkpt>
      <trkpt lat="50.40237" lon="3.10885">
        <ele>52.8591003418</ele>
        <time>2020-12-18T18:48:02.368Z</time>
      </trkpt>
      <trkpt lat="50.40162" lon="3.10983">
        <ele>49.26901245117</ele>
        <time>2020-12-18T18:48:08.337Z</time>
      </trkpt>
      <trkpt lat="50.4014" lon="3.10972">
        <ele>42.18915939331</ele>
        <time>2020-12-18T18:48:14.311Z</time>
      </trkpt>
      <trkpt lat="50.40108" lon="3.10939">
        <ele>33.56820678711</ele>
        <time>2020-12-18T18:48:20.292Z</time>
      </trkpt>
      <trkpt lat="50.40096" lon="3.10907">
        <ele>30.61822891235</ele>
        <time>2020-12-18T18:48:26.278Z</time>
      </trkpt>
      <trkpt lat="50.40086" lon="3.10902">
        <ele>29.17651367188</ele>
        <time>2020-12-18T18:48:32.266Z</time>
      </trkpt>
      <trkpt lat="50.40076" lon="3.10913">
        <ele>27.76054382324</ele>
        <time>2020-12-18T18:48:38.257Z</time>
      </trkpt>
      <trkpt lat="50.40069" lon="3.10947">
        <ele>28.72816085815</ele>
        <time>2020-12-18T18:48:44.252Z</time>
      </trkpt>
      <trkpt lat="50.40074" lon="3.10987">
        <ele>30.57002067566</ele>
        <time>2020-12-18T18:48:50.252Z</time>
      </trkpt>
      <trkpt lat="50.40063" lon="3.11004">
        <ele>28.79362106323</ele>
        <time>2020-12-18T18:48:56.256Z</time>
      </trkpt>
      <trkpt lat="50.40063" lon="3.11025">
        <ele>29.28026008606</ele>
        <time>2020-12-18T18:49:02.262Z</time>
      </trkpt>
      <trkpt lat="50.40107" lon="3.11207">
        <ele>39.59804916382</ele>
        <time>2020-12-18T18:49:08.293Z</time>
      </trkpt>
      <trkpt lat="50.4012" lon="3.11233">
        <ele>41.45168304443</ele>
        <time>2020-12-18T18:49:14.328Z</time>
      </trkpt>
      <trkpt lat="50.40136" lon="3.11338">
        <ele>37.93173217773</ele>
        <time>2020-12-18T18:49:20.377Z</time>
      </trkpt>
      <trkpt lat="50.40166" lon="3.11426">
        <ele>32.59494018555</ele>
        <time>2020-12-18T18:49:26.439Z</time>
      </trkpt>
      <trkpt lat="50.40166" lon="3.11426">
        <ele>32.59645080566</ele>
        <time>2020-12-18T18:49:32.501Z</time>
      </trkpt>
      <trkpt lat="50.40186" lon="3.11483">
        <ele>25.94241714478</ele>
        <time>2020-12-18T18:49:38.571Z</time>
      </trkpt>
      <trkpt lat="50.40187" lon="3.11489">
        <ele>25.35028266907</ele>
        <time>2020-12-18T18:49:44.642Z</time>
      </trkpt>
      <trkpt lat="50.40191" lon="3.11499">
        <ele>24.5007019043</ele>
        <time>2020-12-18T18:49:50.714Z</time>
      </trkpt>
      <trkpt lat="50.40258" lon="3.11664">
        <ele>21.63867950439</ele>
        <time>2020-12-18T18:49:56.812Z</time>
      </trkpt>
      <trkpt lat="50.40276" lon="3.11691">
        <ele>21.60113334656</ele>
        <time>2020-12-18T18:50:02.915Z</time>
      </trkpt>
      <trkpt lat="50.4033" lon="3.11841">
        <ele>26.66530418396</ele>
        <time>2020-12-18T18:50:09.040Z</time>
      </trkpt>
      <trkpt lat="50.40336" lon="3.11885">
        <ele>26.32764625549</ele>
        <time>2020-12-18T18:50:15.170Z</time>
      </trkpt>
      <trkpt lat="50.4037" lon="3.11936">
        <ele>26.31405258179</ele>
        <time>2020-12-18T18:50:21.310Z</time>
      </trkpt>
      <trkpt lat="50.40445" lon="3.12005">
        <ele>28.32639122009</ele>
        <time>2020-12-18T18:50:27.467Z</time>
      </trkpt>
      <trkpt lat="50.40491" lon="3.12059">
        <ele>28.17741012573</ele>
        <time>2020-12-18T18:50:33.636Z</time>
      </trkpt>
      <trkpt lat="50.40543" lon="3.12161">
        <ele>27.20684814453</ele>
        <time>2020-12-18T18:50:39.821Z</time>
      </trkpt>
      <trkpt lat="50.40571" lon="3.1219">
        <ele>27.66917800903</ele>
        <time>2020-12-18T18:50:46.013Z</time>
      </trkpt>
      <trkpt lat="50.40592" lon="3.12226">
        <ele>27.82066726685</ele>
        <time>2020-12-18T18:50:52.211Z</time>
      </trkpt>
      <trkpt lat="50.40652" lon="3.1228">
        <ele>29.95355224609</ele>
        <time>2020-12-18T18:50:58.423Z</time>
      </trkpt>
      <trkpt lat="50.40658" lon="3.12308">
        <ele>30.01493453979</ele>
        <time>2020-12-18T18:51:04.639Z</time>
      </trkpt>
      <trkpt lat="50.40695" lon="3.12383">
        <ele>30.83174514771</ele>
        <time>2020-12-18T18:51:10.867Z</time>
      </trkpt>
      <trkpt lat="50.40705" lon="3.12431">
        <ele>30.20009422302</ele>
        <time>2020-12-18T18:51:17.102Z</time>
      </trkpt>
      <trkpt lat="50.40737" lon="3.12493">
        <ele>30.69014930725</ele>
        <time>2020-12-18T18:51:23.347Z</time>
      </trkpt>
      <trkpt lat="50.40756" lon="3.12513">
        <ele>31.4412651062</ele>
        <time>2020-12-18T18:51:29.596Z</time>
      </trkpt>
      <trkpt lat="50.40762" lon="3.1254">
        <ele>31.82743835449</ele>
        <time>2020-12-18T18:51:35.849Z</time>
      </trkpt>
      <trkpt lat="50.40792" lon="3.12593">
        <ele>33.42702484131</ele>
        <time>2020-12-18T18:51:42.111Z</time>
      </trkpt>
      <trkpt lat="50.40814" lon="3.12609">
        <ele>33.44674682617</ele>
        <time>2020-12-18T18:51:48.378Z</time>
      </trkpt>
      <trkpt lat="50.40815" lon="3.12638">
        <ele>33.07344436646</ele>
        <time>2020-12-18T18:51:54.649Z</time>
      </trkpt>
      <trkpt lat="50.40847" lon="3.12696">
        <ele>30.46002197266</ele>
        <time>2020-12-18T18:52:00.929Z</time>
      </trkpt>
      <trkpt lat="50.40861" lon="3.12739">
        <ele>27.03594779968</ele>
        <time>2020-12-18T18:52:07.216Z</time>
      </trkpt>
      <trkpt lat="50.40883" lon="3.12738">
        <ele>26.5694732666</ele>
        <time>2020-12-18T18:52:13.507Z</time>
      </trkpt>
      <trkpt lat="50.40893" lon="3.12693">
        <ele>29.04098510742</ele>
        <time>2020-12-18T18:52:19.804Z</time>
      </trkpt>
      <trkpt lat="50.40918" lon="3.1265">
        <ele>27.22103500366</ele>
        <time>2020-12-18T18:52:26.108Z</time>
      </trkpt>
      <trkpt lat="50.4092" lon="3.12621">
        <ele>27.72127151489</ele>
        <time>2020-12-18T18:52:32.416Z</time>
      </trkpt>
      <trkpt lat="50.40945" lon="3.12594">
        <ele>24.19421768188</ele>
        <time>2020-12-18T18:52:38.730Z</time>
      </trkpt>
      <trkpt lat="50.40953" lon="3.12516">
        <ele>23.93838691711</ele>
        <time>2020-12-18T18:52:45.054Z</time>
      </trkpt>
      <trkpt lat="50.40938" lon="3.12432">
        <ele>27.75601387024</ele>
        <time>2020-12-18T18:52:51.389Z</time>
      </trkpt>
      <trkpt lat="50.40949" lon="3.12341">
        <ele>27.14175033569</ele>
        <time>2020-12-18T18:52:57.736Z</time>
      </trkpt>
      <trkpt lat="50.4097" lon="3.12263">
        <ele>25.46401786804</ele>
        <time>2020-12-18T18:53:04.094Z</time>
      </trkpt>
      <trkpt lat="50.40968" lon="3.12244">
        <ele>25.66700363159</ele>
        <time>2020-12-18T18:53:10.455Z</time>
      </trkpt>
      <trkpt lat="50.40977" lon="3.12187">
        <ele>24.74018669128</ele>
        <time>2020-12-18T18:53:16.823Z</time>
      </trkpt>
      <trkpt lat="50.40969" lon="3.12072">
        <ele>21.96290397644</ele>
        <time>2020-12-18T18:53:23.206Z</time>
      </trkpt>
      <trkpt lat="50.4096" lon="3.12024">
        <ele>21.1342830658</ele>
        <time>2020-12-18T18:53:29.595Z</time>
      </trkpt>
      <trkpt lat="50.4095" lon="3.12006">
        <ele>21.57933044434</ele>
        <time>2020-12-18T18:53:35.987Z</time>
      </trkpt>
      <trkpt lat="50.40918" lon="3.12003">
        <ele>25.2479801178</ele>
        <time>2020-12-18T18:53:42.386Z</time>
      </trkpt>
      <trkpt lat="50.40909" lon="3.11972">
        <ele>24.41026496887</ele>
        <time>2020-12-18T18:53:48.789Z</time>
      </trkpt>
      <trkpt lat="50.40948" lon="3.11987">
        <ele>20.96595954895</ele>
        <time>2020-12-18T18:53:55.200Z</time>
      </trkpt>
      <trkpt lat="50.40986" lon="3.11979">
        <ele>19.37445831299</ele>
        <time>2020-12-18T18:54:01.619Z</time>
      </trkpt>
      <trkpt lat="50.40988" lon="3.11982">
        <ele>19.38743209839</ele>
        <time>2020-12-18T18:54:08.038Z</time>
      </trkpt>
      <trkpt lat="50.41018" lon="3.1207">
        <ele>18.99007034302</ele>
        <time>2020-12-18T18:54:14.470Z</time>
      </trkpt>
      <trkpt lat="50.41018" lon="3.1207">
        <ele>18.98987007141</ele>
        <time>2020-12-18T18:54:20.902Z</time>
      </trkpt>
      <trkpt lat="50.41042" lon="3.12142">
        <ele>17.7998714447</ele>
        <time>2020-12-18T18:54:27.344Z</time>
      </trkpt>
      <trkpt lat="50.41043" lon="3.12138">
        <ele>17.77412796021</ele>
        <time>2020-12-18T18:54:33.787Z</time>
      </trkpt>
      <trkpt lat="50.41239" lon="3.12726">
        <ele>17.87047958374</ele>
        <time>2020-12-18T18:54:40.315Z</time>
      </trkpt>
      <trkpt lat="50.41317" lon="3.12886">
        <ele>20.22054862976</ele>
        <time>2020-12-18T18:54:46.868Z</time>
      </trkpt>
      <trkpt lat="50.41331" lon="3.12929">
        <ele>20.38788986206</ele>
        <time>2020-12-18T18:54:53.428Z</time>
      </trkpt>
      <trkpt lat="50.41325" lon="3.1296">
        <ele>20.39581680298</ele>
        <time>2020-12-18T18:54:59.992Z</time>
      </trkpt>
      <trkpt lat="50.41325" lon="3.12995">
        <ele>20.80773544312</ele>
        <time>2020-12-18T18:55:06.560Z</time>
      </trkpt>
      <trkpt lat="50.41328" lon="3.1306">
        <ele>21</ele>
        <time>2020-12-18T18:55:13.137Z</time>
      </trkpt>
      <trkpt lat="50.41401" lon="3.13142">
        <ele>20.77540016174</ele>
        <time>2020-12-18T18:55:19.732Z</time>
      </trkpt>
      <trkpt lat="50.41352" lon="3.13267">
        <ele>21.07733917236</ele>
        <time>2020-12-18T18:55:26.345Z</time>
      </trkpt>
      <trkpt lat="50.41346" lon="3.13322">
        <ele>21.73383522034</ele>
        <time>2020-12-18T18:55:32.965Z</time>
      </trkpt>
      <trkpt lat="50.41346" lon="3.13322">
        <ele>21.73383522034</ele>
        <time>2020-12-18T18:55:39.585Z</time>
      </trkpt>
      <trkpt lat="50.41342" lon="3.1336">
        <ele>22</ele>
        <time>2020-12-18T18:55:46.210Z</time>
      </trkpt>
      <trkpt lat="50.4132" lon="3.13547">
        <ele>22</ele>
        <time>2020-12-18T18:55:52.860Z</time>
      </trkpt>
      <trkpt lat="50.41302" lon="3.13536">
        <ele>22</ele>
        <time>2020-12-18T18:55:59.514Z</time>
      </trkpt>
      <trkpt lat="50.41302" lon="3.13536">
        <ele>22</ele>
        <time>2020-12-18T18:56:06.168Z</time>
      </trkpt>
      <trkpt lat="50.41108" lon="3.13363">
        <ele>20.4210395813</ele>
        <time>2020-12-18T18:56:12.866Z</time>
      </trkpt>
      <trkpt lat="50.41108" lon="3.13363">
        <ele>20.42083930969</ele>
        <time>2020-12-18T18:56:19.564Z</time>
      </trkpt>
      <trkpt lat="50.41073" lon="3.13346">
        <ele>19.59720230103</ele>
        <time>2020-12-18T18:56:26.270Z</time>
      </trkpt>
      <trkpt lat="50.4107" lon="3.13345">
        <ele>19.51976585388</ele>
        <time>2020-12-18T18:56:32.976Z</time>
      </trkpt>
      <trkpt lat="50.41053" lon="3.13342">
        <ele>19.15102386475</ele>
        <time>2020-12-18T18:56:39.686Z</time>
      </trkpt>
      <trkpt lat="50.41047" lon="3.13341">
        <ele>19.04571151733</ele>
        <time>2020-12-18T18:56:46.397Z</time>
      </trkpt>
      <trkpt lat="50.41047" lon="3.13341">
        <ele>19.04561042786</ele>
        <time>2020-12-18T18:56:53.108Z</time>
      </trkpt>
      <trkpt lat="50.41051" lon="3.13353">
        <ele>19.0563583374</ele>
        <time>2020-12-18T18:56:59.821Z</time>
      </trkpt>
      <trkpt lat="50.41049" lon="3.13388">
        <ele>19.00486755371</ele>
        <time>2020-12-18T18:57:06.538Z</time>
      </trkpt>
      <trkpt lat="50.41013" lon="3.13585">
        <ele>20.14603424072</ele>
        <time>2020-12-18T18:57:13.281Z</time>
      </trkpt>
      <trkpt lat="50.41013" lon="3.13585">
        <ele>20.14603424072</ele>
        <time>2020-12-18T18:57:20.024Z</time>
      </trkpt>
      <trkpt lat="50.40995" lon="3.13683">
        <ele>19.43524360657</ele>
        <time>2020-12-18T18:57:26.781Z</time>
      </trkpt>
      <trkpt lat="50.40992" lon="3.13787">
        <ele>19.96086883545</ele>
        <time>2020-12-18T18:57:33.551Z</time>
      </trkpt>
      <trkpt lat="50.40977" lon="3.13838">
        <ele>20.20544624329</ele>
        <time>2020-12-18T18:57:40.328Z</time>
      </trkpt>
      <trkpt lat="50.40938" lon="3.13906">
        <ele>18.92724609375</ele>
        <time>2020-12-18T18:57:47.117Z</time>
      </trkpt>
      <trkpt lat="50.40925" lon="3.14002">
        <ele>17.62712860107</ele>
        <time>2020-12-18T18:57:53.918Z</time>
      </trkpt>
      <trkpt lat="50.40946" lon="3.14076">
        <ele>17.76667785645</ele>
        <time>2020-12-18T18:58:00.730Z</time>
      </trkpt>
      <trkpt lat="50.40986" lon="3.14169">
        <ele>18.24295806885</ele>
        <time>2020-12-18T18:58:07.556Z</time>
      </trkpt>
      <trkpt lat="50.40983" lon="3.14219">
        <ele>18.21721458435</ele>
        <time>2020-12-18T18:58:14.388Z</time>
      </trkpt>
      <trkpt lat="50.40954" lon="3.14322">
        <ele>18.73096656799</ele>
        <time>2020-12-18T18:58:21.235Z</time>
      </trkpt>
      <trkpt lat="50.40901" lon="3.14444">
        <ele>18.02760887146</ele>
        <time>2020-12-18T18:58:28.101Z</time>
      </trkpt>
      <trkpt lat="50.40854" lon="3.14499">
        <ele>17.34035301208</ele>
        <time>2020-12-18T18:58:34.978Z</time>
      </trkpt>
      <trkpt lat="50.40774" lon="3.1455">
        <ele>17.70708465576</ele>
        <time>2020-12-18T18:58:41.873Z</time>
      </trkpt>
      <trkpt lat="50.40532" lon="3.14701">
        <ele>19.40418052673</ele>
        <time>2020-12-18T18:58:48.820Z</time>
      </trkpt>
      <trkpt lat="50.40489" lon="3.14706">
        <ele>20.37768363953</ele>
        <time>2020-12-18T18:58:55.775Z</time>
      </trkpt>
      <trkpt lat="50.4034" lon="3.14813">
        <ele>18.87970924377</ele>
        <time>2020-12-18T18:59:02.763Z</time>
      </trkpt>
      <trkpt lat="50.40317" lon="3.14818">
        <ele>19.08566856384</ele>
        <time>2020-12-18T18:59:09.756Z</time>
      </trkpt>
      <trkpt lat="50.40247" lon="3.14901">
        <ele>18.31790733337</ele>
        <time>2020-12-18T18:59:16.766Z</time>
      </trkpt>
      <trkpt lat="50.40247" lon="3.14901">
        <ele>18.31790733337</ele>
        <time>2020-12-18T18:59:23.776Z</time>
      </trkpt>
      <trkpt lat="50.40224" lon="3.14964">
        <ele>17.22037696838</ele>
        <time>2020-12-18T18:59:30.796Z</time>
      </trkpt>
      <trkpt lat="50.39996" lon="3.15363">
        <ele>16.37455368042</ele>
        <time>2020-12-18T18:59:37.884Z</time>
      </trkpt>
      <trkpt lat="50.39918" lon="3.15501">
        <ele>17.31266021729</ele>
        <time>2020-12-18T18:59:44.996Z</time>
      </trkpt>
      <trkpt lat="50.39529" lon="3.16185">
        <ele>19</ele>
        <time>2020-12-18T18:59:52.225Z</time>
      </trkpt>
      <trkpt lat="50.39518" lon="3.16221">
        <ele>19</ele>
        <time>2020-12-18T18:59:59.459Z</time>
      </trkpt>
      <trkpt lat="50.39518" lon="3.16221">
        <ele>19</ele>
        <time>2020-12-18T19:00:06.693Z</time>
      </trkpt>
      <trkpt lat="50.39517" lon="3.16225">
        <ele>19</ele>
        <time>2020-12-18T19:00:13.928Z</time>
      </trkpt>
      <trkpt lat="50.39502" lon="3.16401">
        <ele>18</ele>
        <time>2020-12-18T19:00:21.185Z</time>
      </trkpt>
      <trkpt lat="50.39496" lon="3.16517">
        <ele>17.75994110107</ele>
        <time>2020-12-18T19:00:28.457Z</time>
      </trkpt>
      <trkpt lat="50.39496" lon="3.16517">
        <ele>17.76004219055</ele>
        <time>2020-12-18T19:00:35.729Z</time>
      </trkpt>
      <trkpt lat="50.39496" lon="3.16591">
        <ele>18.37598800659</ele>
        <time>2020-12-18T19:00:43.011Z</time>
      </trkpt>
      <trkpt lat="50.39504" lon="3.16692">
        <ele>19.93218994141</ele>
        <time>2020-12-18T19:00:50.306Z</time>
      </trkpt>
      <trkpt lat="50.395" lon="3.16822">
        <ele>19.72379302979</ele>
        <time>2020-12-18T19:00:57.617Z</time>
      </trkpt>
      <trkpt lat="50.39492" lon="3.16882">
        <ele>19.55534934998</ele>
        <time>2020-12-18T19:01:04.936Z</time>
      </trkpt>
      <trkpt lat="50.39468" lon="3.16982">
        <ele>18.34533882141</ele>
        <time>2020-12-18T19:01:12.269Z</time>
      </trkpt>
      <trkpt lat="50.39408" lon="3.17194">
        <ele>18.35910797119</ele>
        <time>2020-12-18T19:01:19.631Z</time>
      </trkpt>
      <trkpt lat="50.3936" lon="3.17389">
        <ele>18.48257255554</ele>
        <time>2020-12-18T19:01:27.020Z</time>
      </trkpt>
      <trkpt lat="50.3936" lon="3.17389">
        <ele>18.48237037659</ele>
        <time>2020-12-18T19:01:34.409Z</time>
      </trkpt>
      <trkpt lat="50.39106" lon="3.18368">
        <ele>16.65382957458</ele>
        <time>2020-12-18T19:01:41.933Z</time>
      </trkpt>
      <trkpt lat="50.39064" lon="3.18513">
        <ele>16.51814460754</ele>
        <time>2020-12-18T19:01:49.478Z</time>
      </trkpt>
      <trkpt lat="50.39023" lon="3.18688">
        <ele>15.3984670639</ele>
        <time>2020-12-18T19:01:57.047Z</time>
      </trkpt>
      <trkpt lat="50.38759" lon="3.19693">
        <ele>22.37701034546</ele>
        <time>2020-12-18T19:02:04.755Z</time>
      </trkpt>
      <trkpt lat="50.38758" lon="3.19747">
        <ele>23.45660591125</ele>
        <time>2020-12-18T19:02:12.470Z</time>
      </trkpt>
      <trkpt lat="50.3877" lon="3.19866">
        <ele>23.87500762939</ele>
        <time>2020-12-18T19:02:20.200Z</time>
      </trkpt>
      <trkpt lat="50.38769" lon="3.20009">
        <ele>19.93119812012</ele>
        <time>2020-12-18T19:02:27.948Z</time>
      </trkpt>
      <trkpt lat="50.38756" lon="3.20139">
        <ele>19.38485527039</ele>
        <time>2020-12-18T19:02:35.713Z</time>
      </trkpt>
      <trkpt lat="50.38756" lon="3.20249">
        <ele>17.01201629639</ele>
        <time>2020-12-18T19:02:43.492Z</time>
      </trkpt>
      <trkpt lat="50.38797" lon="3.20465">
        <ele>16.01685523987</ele>
        <time>2020-12-18T19:02:51.300Z</time>
      </trkpt>
      <trkpt lat="50.38889" lon="3.20731">
        <ele>16.08866691589</ele>
        <time>2020-12-18T19:02:59.147Z</time>
      </trkpt>
      <trkpt lat="50.38889" lon="3.20731">
        <ele>16.08876800537</ele>
        <time>2020-12-18T19:03:06.994Z</time>
      </trkpt>
      <trkpt lat="50.38959" lon="3.20933">
        <ele>16.94894790649</ele>
        <time>2020-12-18T19:03:14.870Z</time>
      </trkpt>
      <trkpt lat="50.38982" lon="3.21092">
        <ele>15.78991985321</ele>
        <time>2020-12-18T19:03:22.767Z</time>
      </trkpt>
      <trkpt lat="50.38988" lon="3.21169">
        <ele>16</ele>
        <time>2020-12-18T19:03:30.674Z</time>
      </trkpt>
      <trkpt lat="50.38986" lon="3.21464">
        <ele>16.75120162964</ele>
        <time>2020-12-18T19:03:38.619Z</time>
      </trkpt>
      <trkpt lat="50.38986" lon="3.21469">
        <ele>16.75130271912</ele>
        <time>2020-12-18T19:03:46.565Z</time>
      </trkpt>
      <trkpt lat="50.38987" lon="3.21831">
        <ele>17.47686004639</ele>
        <time>2020-12-18T19:03:54.557Z</time>
      </trkpt>
      <trkpt lat="50.38982" lon="3.22261">
        <ele>17</ele>
        <time>2020-12-18T19:04:02.604Z</time>
      </trkpt>
      <trkpt lat="50.38947" lon="3.22653">
        <ele>18.40328788757</ele>
        <time>2020-12-18T19:04:10.702Z</time>
      </trkpt>
      <trkpt lat="50.38957" lon="3.2289">
        <ele>16.09885787964</ele>
        <time>2020-12-18T19:04:18.830Z</time>
      </trkpt>
      <trkpt lat="50.3895" lon="3.23046">
        <ele>16.58588600159</ele>
        <time>2020-12-18T19:04:26.978Z</time>
      </trkpt>
      <trkpt lat="50.38944" lon="3.23094">
        <ele>17.22950935364</ele>
        <time>2020-12-18T19:04:35.132Z</time>
      </trkpt>
      <trkpt lat="50.38931" lon="3.23134">
        <ele>18.33846664429</ele>
        <time>2020-12-18T19:04:43.292Z</time>
      </trkpt>
      <trkpt lat="50.38891" lon="3.23208">
        <ele>19</ele>
        <time>2020-12-18T19:04:51.464Z</time>
      </trkpt>
      <trkpt lat="50.38873" lon="3.23267">
        <ele>19.10291099548</ele>
        <time>2020-12-18T19:04:59.645Z</time>
      </trkpt>
      <trkpt lat="50.38864" lon="3.23399">
        <ele>19</ele>
        <time>2020-12-18T19:05:07.843Z</time>
      </trkpt>
      <trkpt lat="50.38859" lon="3.23458">
        <ele>19.3528175354</ele>
        <time>2020-12-18T19:05:16.048Z</time>
      </trkpt>
      <trkpt lat="50.38846" lon="3.23524">
        <ele>19.43724060059</ele>
        <time>2020-12-18T19:05:24.262Z</time>
      </trkpt>
      <trkpt lat="50.38732" lon="3.23397">
        <ele>18.21079826355</ele>
        <time>2020-12-18T19:05:32.504Z</time>
      </trkpt>
      <trkpt lat="50.38709" lon="3.23407">
        <ele>17.85520744324</ele>
        <time>2020-12-18T19:05:40.751Z</time>
      </trkpt>
      <trkpt lat="50.38728" lon="3.2341">
        <ele>18.15930747986</ele>
        <time>2020-12-18T19:05:49.002Z</time>
      </trkpt>
      <trkpt lat="50.3872" lon="3.23426">
        <ele>18.0564289093</ele>
        <time>2020-12-18T19:05:57.256Z</time>
      </trkpt>
      <trkpt lat="50.3872" lon="3.23426">
        <ele>18.05632781982</ele>
        <time>2020-12-18T19:06:05.510Z</time>
      </trkpt>
      <trkpt lat="50.38706" lon="3.23422">
        <ele>17.7779712677</ele>
        <time>2020-12-18T19:06:13.766Z</time>
      </trkpt>
      <trkpt lat="50.38629" lon="3.2345">
        <ele>16.04991722107</ele>
        <time>2020-12-18T19:06:22.038Z</time>
      </trkpt>
      <trkpt lat="50.38482" lon="3.23466">
        <ele>18.13404655457</ele>
        <time>2020-12-18T19:06:30.340Z</time>
      </trkpt>
      <trkpt lat="50.38448" lon="3.23478">
        <ele>18.62111282349</ele>
        <time>2020-12-18T19:06:38.649Z</time>
      </trkpt>
      <trkpt lat="50.38448" lon="3.23478">
        <ele>18.62101173401</ele>
        <time>2020-12-18T19:06:46.958Z</time>
      </trkpt>
      <trkpt lat="50.38429" lon="3.23484">
        <ele>18.67648696899</ele>
        <time>2020-12-18T19:06:55.271Z</time>
      </trkpt>
      <trkpt lat="50.38377" lon="3.23527">
        <ele>17.82334518433</ele>
        <time>2020-12-18T19:07:03.595Z</time>
      </trkpt>
      <trkpt lat="50.38361" lon="3.23464">
        <ele>19.16564178467</ele>
        <time>2020-12-18T19:07:11.928Z</time>
      </trkpt>
      <trkpt lat="50.38289" lon="3.23479">
        <ele>18.69968414307</ele>
        <time>2020-12-18T19:07:20.276Z</time>
      </trkpt>
      <trkpt lat="50.38289" lon="3.23479">
        <ele>18.69978523254</ele>
        <time>2020-12-18T19:07:28.624Z</time>
      </trkpt>
      <trkpt lat="50.38157" lon="3.23491">
        <ele>19.62232017517</ele>
        <time>2020-12-18T19:07:36.998Z</time>
      </trkpt>
      <trkpt lat="50.38115" lon="3.23536">
        <ele>19.55806159973</ele>
        <time>2020-12-18T19:07:45.382Z</time>
      </trkpt>
      <trkpt lat="50.38115" lon="3.23536">
        <ele>19.55806159973</ele>
        <time>2020-12-18T19:07:53.766Z</time>
      </trkpt>
      <trkpt lat="50.38102" lon="3.2355">
        <ele>19.89395141602</ele>
        <time>2020-12-18T19:08:02.154Z</time>
      </trkpt>
      <trkpt lat="50.38102" lon="3.2355">
        <ele>19.89395141602</ele>
        <time>2020-12-18T19:08:10.542Z</time>
      </trkpt>
      <trkpt lat="50.38093" lon="3.23559">
        <ele>20.14957046509</ele>
        <time>2020-12-18T19:08:18.932Z</time>
      </trkpt>
      <trkpt lat="50.38206" lon="3.2378">
        <ele>26.26749420166</ele>
        <time>2020-12-18T19:08:27.358Z</time>
      </trkpt>
      <trkpt lat="50.38206" lon="3.2378">
        <ele>26.26799583435</ele>
        <time>2020-12-18T19:08:35.784Z</time>
      </trkpt>
      <trkpt lat="50.38286" lon="3.23937">
        <ele>30.99603462219</ele>
        <time>2020-12-18T19:08:44.236Z</time>
      </trkpt>
      <trkpt lat="50.3829" lon="3.23955">
        <ele>32.15425491333</ele>
        <time>2020-12-18T19:08:52.690Z</time>
      </trkpt>
      <trkpt lat="50.38302" lon="3.2397">
        <ele>32.95787811279</ele>
        <time>2020-12-18T19:09:01.147Z</time>
      </trkpt>
      <trkpt lat="50.38281" lon="3.24043">
        <ele>35.10348510742</ele>
        <time>2020-12-18T19:09:09.614Z</time>
      </trkpt>
      <trkpt lat="50.38261" lon="3.24088">
        <ele>33.01514053345</ele>
        <time>2020-12-18T19:09:18.088Z</time>
      </trkpt>
      <trkpt lat="50.38254" lon="3.24132">
        <ele>30.72279930115</ele>
        <time>2020-12-18T19:09:26.568Z</time>
      </trkpt>
      <trkpt lat="50.38274" lon="3.24175">
        <ele>28.67042160034</ele>
        <time>2020-12-18T19:09:35.055Z</time>
      </trkpt>
      <trkpt lat="50.38274" lon="3.24175">
        <ele>28.67062187195</ele>
        <time>2020-12-18T19:09:43.542Z</time>
      </trkpt>
      <trkpt lat="50.38282" lon="3.24203">
        <ele>28.60873031616</ele>
        <time>2020-12-18T19:09:52.033Z</time>
      </trkpt>
      <trkpt lat="50.38272" lon="3.2429">
        <ele>27.11359405518</ele>
        <time>2020-12-18T19:10:00.535Z</time>
      </trkpt>
      <trkpt lat="50.38282" lon="3.24401">
        <ele>25.29514122009</ele>
        <time>2020-12-18T19:10:09.052Z</time>
      </trkpt>
      <trkpt lat="50.38272" lon="3.24419">
        <ele>24.25741195679</ele>
        <time>2020-12-18T19:10:17.571Z</time>
      </trkpt>
      <trkpt lat="50.38235" lon="3.24431">
        <ele>21.34345245361</ele>
        <time>2020-12-18T19:10:26.098Z</time>
      </trkpt>
      <trkpt lat="50.38225" lon="3.24448">
        <ele>20.26767921448</ele>
        <time>2020-12-18T19:10:34.628Z</time>
      </trkpt>
      <trkpt lat="50.38212" lon="3.24473">
        <ele>19.56687164307</ele>
        <time>2020-12-18T19:10:43.162Z</time>
      </trkpt>
      <trkpt lat="50.38179" lon="3.24474">
        <ele>20.75113677979</ele>
        <time>2020-12-18T19:10:51.703Z</time>
      </trkpt>
      <trkpt lat="50.38158" lon="3.24489">
        <ele>23.69995307922</ele>
        <time>2020-12-18T19:11:00.248Z</time>
      </trkpt>
      <trkpt lat="50.38152" lon="3.24507">
        <ele>25.42486190796</ele>
        <time>2020-12-18T19:11:08.796Z</time>
      </trkpt>
      <trkpt lat="50.38153" lon="3.24545">
        <ele>25.00445747375</ele>
        <time>2020-12-18T19:11:17.349Z</time>
      </trkpt>
      <trkpt lat="50.38143" lon="3.24603">
        <ele>23.90554428101</ele>
        <time>2020-12-18T19:11:25.910Z</time>
      </trkpt>
      <trkpt lat="50.38116" lon="3.24642">
        <ele>25.25524330139</ele>
        <time>2020-12-18T19:11:34.478Z</time>
      </trkpt>
      <trkpt lat="50.38076" lon="3.24644">
        <ele>28.72066879272</ele>
        <time>2020-12-18T19:11:43.054Z</time>
      </trkpt>
      <trkpt lat="50.38019" lon="3.24606">
        <ele>31.54351425171</ele>
        <time>2020-12-18T19:11:51.642Z</time>
      </trkpt>
      <trkpt lat="50.3805" lon="3.24649">
        <ele>29.75046539307</ele>
        <time>2020-12-18T19:12:00.239Z</time>
      </trkpt>
      <trkpt lat="50.38122" lon="3.24679">
        <ele>22.56313323975</ele>
        <time>2020-12-18T19:12:08.851Z</time>
      </trkpt>
      <trkpt lat="50.38124" lon="3.24687">
        <ele>22.16408729553</ele>
        <time>2020-12-18T19:12:17.464Z</time>
      </trkpt>
      <trkpt lat="50.38114" lon="3.24696">
        <ele>22.3957901001</ele>
        <time>2020-12-18T19:12:26.079Z</time>
      </trkpt>
      <trkpt lat="50.38036" lon="3.24681">
        <ele>26.17318534851</ele>
        <time>2020-12-18T19:12:34.710Z</time>
      </trkpt>
      <trkpt lat="50.37975" lon="3.24645">
        <ele>25.0756778717</ele>
        <time>2020-12-18T19:12:43.354Z</time>
      </trkpt>
      <trkpt lat="50.37925" lon="3.2464">
        <ele>21.50272369385</ele>
        <time>2020-12-18T19:12:52.008Z</time>
      </trkpt>
      <trkpt lat="50.37907" lon="3.24657">
        <ele>20.47292709351</ele>
        <time>2020-12-18T19:13:00.666Z</time>
      </trkpt>
      <trkpt lat="50.37891" lon="3.24695">
        <ele>19.08604240417</ele>
        <time>2020-12-18T19:13:09.330Z</time>
      </trkpt>
      <trkpt lat="50.37891" lon="3.24695">
        <ele>19.08563995361</ele>
        <time>2020-12-18T19:13:17.994Z</time>
      </trkpt>
      <trkpt lat="50.37869" lon="3.24725">
        <ele>18.34421348572</ele>
        <time>2020-12-18T19:13:26.664Z</time>
      </trkpt>
      <trkpt lat="50.37843" lon="3.2474">
        <ele>18.71472740173</ele>
        <time>2020-12-18T19:13:35.339Z</time>
      </trkpt>
      <trkpt lat="50.37766" lon="3.24717">
        <ele>20.25608253479</ele>
        <time>2020-12-18T19:13:44.030Z</time>
      </trkpt>
      <trkpt lat="50.37718" lon="3.24691">
        <ele>20.82327651978</ele>
        <time>2020-12-18T19:13:52.731Z</time>
      </trkpt>
      <trkpt lat="50.37691" lon="3.24694">
        <ele>20.24159431458</ele>
        <time>2020-12-18T19:14:01.438Z</time>
      </trkpt>
      <trkpt lat="50.37683" lon="3.24725">
        <ele>19.68526268005</ele>
        <time>2020-12-18T19:14:10.149Z</time>
      </trkpt>
      <trkpt lat="50.37683" lon="3.24725">
        <ele>19.68516159058</ele>
        <time>2020-12-18T19:14:18.860Z</time>
      </trkpt>
      <trkpt lat="50.37691" lon="3.24694">
        <ele>20.24139404297</ele>
        <time>2020-12-18T19:14:27.575Z</time>
      </trkpt>
      <trkpt lat="50.37718" lon="3.24691">
        <ele>20.82327651978</ele>
        <time>2020-12-18T19:14:36.296Z</time>
      </trkpt>
      <trkpt lat="50.37766" lon="3.24717">
        <ele>20.25608253479</ele>
        <time>2020-12-18T19:14:45.027Z</time>
      </trkpt>
      <trkpt lat="50.37843" lon="3.2474">
        <ele>18.71452713013</ele>
        <time>2020-12-18T19:14:53.773Z</time>
      </trkpt>
      <trkpt lat="50.37838" lon="3.24761">
        <ele>18.10972213745</ele>
        <time>2020-12-18T19:15:02.522Z</time>
      </trkpt>
      <trkpt lat="50.37857" lon="3.24806">
        <ele>16.54500770569</ele>
        <time>2020-12-18T19:15:11.278Z</time>
      </trkpt>
      <trkpt lat="50.37863" lon="3.2488">
        <ele>14.80706977844</ele>
        <time>2020-12-18T19:15:20.044Z</time>
      </trkpt>
      <trkpt lat="50.37854" lon="3.2494">
        <ele>14.53360843658</ele>
        <time>2020-12-18T19:15:28.818Z</time>
      </trkpt>
      <trkpt lat="50.37877" lon="3.24996">
        <ele>13.29805374146</ele>
        <time>2020-12-18T19:15:37.600Z</time>
      </trkpt>
      <trkpt lat="50.37902" lon="3.25085">
        <ele>14.23989582062</ele>
        <time>2020-12-18T19:15:46.395Z</time>
      </trkpt>
      <trkpt lat="50.37966" lon="3.25165">
        <ele>13</ele>
        <time>2020-12-18T19:15:55.206Z</time>
      </trkpt>
      <trkpt lat="50.37966" lon="3.25165">
        <ele>13</ele>
        <time>2020-12-18T19:16:04.017Z</time>
      </trkpt>
      <trkpt lat="50.3798" lon="3.25181">
        <ele>13.07795333862</ele>
        <time>2020-12-18T19:16:12.832Z</time>
      </trkpt>
      <trkpt lat="50.38021" lon="3.25223">
        <ele>14.58403110504</ele>
        <time>2020-12-18T19:16:21.656Z</time>
      </trkpt>
      <trkpt lat="50.38028" lon="3.25233">
        <ele>14.93158721924</ele>
        <time>2020-12-18T19:16:30.482Z</time>
      </trkpt>
      <trkpt lat="50.38058" lon="3.2527">
        <ele>16.12962532043</ele>
        <time>2020-12-18T19:16:39.316Z</time>
      </trkpt>
      <trkpt lat="50.38096" lon="3.25284">
        <ele>15.57610988617</ele>
        <time>2020-12-18T19:16:48.158Z</time>
      </trkpt>
      <trkpt lat="50.38132" lon="3.25295">
        <ele>14.95464611053</ele>
        <time>2020-12-18T19:16:57.007Z</time>
      </trkpt>
      <trkpt lat="50.38154" lon="3.25295">
        <ele>15.22496795654</ele>
        <time>2020-12-18T19:17:05.861Z</time>
      </trkpt>
      <trkpt lat="50.38182" lon="3.25258">
        <ele>15.18902397156</ele>
        <time>2020-12-18T19:17:14.722Z</time>
      </trkpt>
      <trkpt lat="50.38182" lon="3.25258">
        <ele>15.18862247467</ele>
        <time>2020-12-18T19:17:23.583Z</time>
      </trkpt>
      <trkpt lat="50.38182" lon="3.25258">
        <ele>15.18902397156</ele>
        <time>2020-12-18T19:17:32.444Z</time>
      </trkpt>
      <trkpt lat="50.38182" lon="3.25258">
        <ele>15.18862247467</ele>
        <time>2020-12-18T19:17:41.305Z</time>
      </trkpt>
      <trkpt lat="50.38187" lon="3.25249">
        <ele>15.03455448151</ele>
        <time>2020-12-18T19:17:50.168Z</time>
      </trkpt>
      <trkpt lat="50.38196" lon="3.25234">
        <ele>14.96088123322</ele>
        <time>2020-12-18T19:17:59.033Z</time>
      </trkpt>
      <trkpt lat="50.38223" lon="3.25224">
        <ele>16.08176612854</ele>
        <time>2020-12-18T19:18:07.904Z</time>
      </trkpt>
      <trkpt lat="50.38264" lon="3.25236">
        <ele>16.3649597168</ele>
        <time>2020-12-18T19:18:16.783Z</time>
      </trkpt>
      <trkpt lat="50.3828" lon="3.25232">
        <ele>16.55724143982</ele>
        <time>2020-12-18T19:18:25.665Z</time>
      </trkpt>
      <trkpt lat="50.38305" lon="3.25255">
        <ele>17.26267814636</ele>
        <time>2020-12-18T19:18:34.553Z</time>
      </trkpt>
      <trkpt lat="50.38332" lon="3.25247">
        <ele>18.22811126709</ele>
        <time>2020-12-18T19:18:43.447Z</time>
      </trkpt>
      <trkpt lat="50.38384" lon="3.25213">
        <ele>20.60071372986</ele>
        <time>2020-12-18T19:18:52.352Z</time>
      </trkpt>
      <trkpt lat="50.38397" lon="3.25194">
        <ele>20.81954574585</ele>
        <time>2020-12-18T19:19:01.260Z</time>
      </trkpt>
      <trkpt lat="50.38428" lon="3.25125">
        <ele>20.74386405945</ele>
        <time>2020-12-18T19:19:10.179Z</time>
      </trkpt>
      <trkpt lat="50.38494" lon="3.25068">
        <ele>22.91143226624</ele>
        <time>2020-12-18T19:19:19.113Z</time>
      </trkpt>
      <trkpt lat="50.38537" lon="3.24992">
        <ele>19.80347824097</ele>
        <time>2020-12-18T19:19:28.060Z</time>
      </trkpt>
      <trkpt lat="50.3854" lon="3.24949">
        <ele>18.97964096069</ele>
        <time>2020-12-18T19:19:37.013Z</time>
      </trkpt>
      <trkpt lat="50.38533" lon="3.24894">
        <ele>19.46783828735</ele>
        <time>2020-12-18T19:19:45.973Z</time>
      </trkpt>
      <trkpt lat="50.38547" lon="3.2485">
        <ele>18.12829780579</ele>
        <time>2020-12-18T19:19:54.939Z</time>
      </trkpt>
      <trkpt lat="50.38548" lon="3.24848">
        <ele>18.02531814575</ele>
        <time>2020-12-18T19:20:03.906Z</time>
      </trkpt>
      <trkpt lat="50.38554" lon="3.24848">
        <ele>17.92593002319</ele>
        <time>2020-12-18T19:20:12.874Z</time>
      </trkpt>
      <trkpt lat="50.38565" lon="3.24849">
        <ele>17.79720497131</ele>
        <time>2020-12-18T19:20:21.844Z</time>
      </trkpt>
      <trkpt lat="50.38599" lon="3.24953">
        <ele>17.38538742065</ele>
        <time>2020-12-18T19:20:30.829Z</time>
      </trkpt>
      <trkpt lat="50.38614" lon="3.24974">
        <ele>17.20517349243</ele>
        <time>2020-12-18T19:20:39.818Z</time>
      </trkpt>
      <trkpt lat="50.38656" lon="3.24996">
        <ele>16.70304679871</ele>
        <time>2020-12-18T19:20:48.816Z</time>
      </trkpt>
      <trkpt lat="50.38656" lon="3.24996">
        <ele>16.70314788818</ele>
        <time>2020-12-18T19:20:57.814Z</time>
      </trkpt>
      <trkpt lat="50.38655" lon="3.25005">
        <ele>16.71601867676</ele>
        <time>2020-12-18T19:21:06.813Z</time>
      </trkpt>
      <trkpt lat="50.38672" lon="3.24995">
        <ele>16.50996017456</ele>
        <time>2020-12-18T19:21:15.816Z</time>
      </trkpt>
      <trkpt lat="50.3868" lon="3.24995">
        <ele>16.41985321045</ele>
        <time>2020-12-18T19:21:24.821Z</time>
      </trkpt>
      <trkpt lat="50.38688" lon="3.24986">
        <ele>16.31697273254</ele>
        <time>2020-12-18T19:21:33.828Z</time>
      </trkpt>
      <trkpt lat="50.38709" lon="3.24985">
        <ele>16.07239723206</ele>
        <time>2020-12-18T19:21:42.839Z</time>
      </trkpt>
      <trkpt lat="50.38782" lon="3.25063">
        <ele>16</ele>
        <time>2020-12-18T19:21:51.867Z</time>
      </trkpt>
      <trkpt lat="50.38805" lon="3.25086">
        <ele>16.08612442017</ele>
        <time>2020-12-18T19:22:00.901Z</time>
      </trkpt>
      <trkpt lat="50.38884" lon="3.24922">
        <ele>17.0258140564</ele>
        <time>2020-12-18T19:22:09.961Z</time>
      </trkpt>
      <trkpt lat="50.38923" lon="3.24809">
        <ele>17.5020942688</ele>
        <time>2020-12-18T19:22:19.038Z</time>
      </trkpt>
      <trkpt lat="50.38958" lon="3.24776">
        <ele>17.91411399841</ele>
        <time>2020-12-18T19:22:28.123Z</time>
      </trkpt>
      <trkpt lat="50.38958" lon="3.24776">
        <ele>17.91401290894</ele>
        <time>2020-12-18T19:22:37.208Z</time>
      </trkpt>
      <trkpt lat="50.39176" lon="3.25091">
        <ele>16</ele>
        <time>2020-12-18T19:22:46.352Z</time>
      </trkpt>
      <trkpt lat="50.39447" lon="3.25263">
        <ele>18.55912590027</ele>
        <time>2020-12-18T19:22:55.555Z</time>
      </trkpt>
      <trkpt lat="50.39494" lon="3.25304">
        <ele>18.71359634399</ele>
        <time>2020-12-18T19:23:04.769Z</time>
      </trkpt>
      <trkpt lat="50.39726" lon="3.25574">
        <ele>17.13069343567</ele>
        <time>2020-12-18T19:23:14.040Z</time>
      </trkpt>
      <trkpt lat="50.39788" lon="3.25675">
        <ele>17.07001876831</ele>
        <time>2020-12-18T19:23:23.329Z</time>
      </trkpt>
      <trkpt lat="50.39841" lon="3.25825">
        <ele>17.50804710388</ele>
        <time>2020-12-18T19:23:32.640Z</time>
      </trkpt>
      <trkpt lat="50.3986" lon="3.25861">
        <ele>17.73974990845</ele>
        <time>2020-12-18T19:23:41.957Z</time>
      </trkpt>
      <trkpt lat="50.39928" lon="3.25929">
        <ele>18</ele>
        <time>2020-12-18T19:23:51.290Z</time>
      </trkpt>
      <trkpt lat="50.39954" lon="3.25986">
        <ele>17.31967163086</ele>
        <time>2020-12-18T19:24:00.632Z</time>
      </trkpt>
      <trkpt lat="50.40029" lon="3.2628">
        <ele>17.79261779785</ele>
        <time>2020-12-18T19:24:10.015Z</time>
      </trkpt>
      <trkpt lat="50.40096" lon="3.26467">
        <ele>15.98112010956</ele>
        <time>2020-12-18T19:24:19.425Z</time>
      </trkpt>
      <trkpt lat="50.40167" lon="3.26838">
        <ele>16.52021408081</ele>
        <time>2020-12-18T19:24:28.885Z</time>
      </trkpt>
      <trkpt lat="50.40183" lon="3.26896">
        <ele>17.21053314209</ele>
        <time>2020-12-18T19:24:38.353Z</time>
      </trkpt>
      <trkpt lat="50.40241" lon="3.26975">
        <ele>17.55010223389</ele>
        <time>2020-12-18T19:24:47.836Z</time>
      </trkpt>
      <trkpt lat="50.40257" lon="3.27007">
        <ele>17.35701560974</ele>
        <time>2020-12-18T19:24:57.325Z</time>
      </trkpt>
      <trkpt lat="50.40307" lon="3.27241">
        <ele>16</ele>
        <time>2020-12-18T19:25:06.845Z</time>
      </trkpt>
      <trkpt lat="50.40347" lon="3.27335">
        <ele>17.44485473633</ele>
        <time>2020-12-18T19:25:16.380Z</time>
      </trkpt>
      <trkpt lat="50.40388" lon="3.27403">
        <ele>17.3151550293</ele>
        <time>2020-12-18T19:25:25.927Z</time>
      </trkpt>
      <trkpt lat="50.40478" lon="3.27521">
        <ele>16.51633071899</ele>
        <time>2020-12-18T19:25:35.497Z</time>
      </trkpt>
      <trkpt lat="50.4051" lon="3.27643">
        <ele>17.09586334229</ele>
        <time>2020-12-18T19:25:45.084Z</time>
      </trkpt>
      <trkpt lat="50.40575" lon="3.27888">
        <ele>18.93842315674</ele>
        <time>2020-12-18T19:25:54.705Z</time>
      </trkpt>
      <trkpt lat="50.40581" lon="3.27974">
        <ele>19.56016921997</ele>
        <time>2020-12-18T19:26:04.337Z</time>
      </trkpt>
      <trkpt lat="50.4061" lon="3.28175">
        <ele>19.47519683838</ele>
        <time>2020-12-18T19:26:13.995Z</time>
      </trkpt>
      <trkpt lat="50.40615" lon="3.28346">
        <ele>18.60418701172</ele>
        <time>2020-12-18T19:26:23.675Z</time>
      </trkpt>
      <trkpt lat="50.40605" lon="3.2843">
        <ele>18.34647369385</ele>
        <time>2020-12-18T19:26:33.366Z</time>
      </trkpt>
      <trkpt lat="50.40562" lon="3.28565">
        <ele>18.15833854675</ele>
        <time>2020-12-18T19:26:43.076Z</time>
      </trkpt>
      <trkpt lat="50.40542" lon="3.28599">
        <ele>18</ele>
        <time>2020-12-18T19:26:52.792Z</time>
      </trkpt>
      <trkpt lat="50.40518" lon="3.2863">
        <ele>18</ele>
        <time>2020-12-18T19:27:02.515Z</time>
      </trkpt>
      <trkpt lat="50.40486" lon="3.28653">
        <ele>18</ele>
        <time>2020-12-18T19:27:12.245Z</time>
      </trkpt>
      <trkpt lat="50.40402" lon="3.28685">
        <ele>17.24034118652</ele>
        <time>2020-12-18T19:27:21.992Z</time>
      </trkpt>
      <trkpt lat="50.4037" lon="3.28707">
        <ele>17.14311599731</ele>
        <time>2020-12-18T19:27:31.746Z</time>
      </trkpt>
      <trkpt lat="50.4037" lon="3.28707">
        <ele>17.14301681519</ele>
        <time>2020-12-18T19:27:41.500Z</time>
      </trkpt>
      <trkpt lat="50.40365" lon="3.2871">
        <ele>17.19732093811</ele>
        <time>2020-12-18T19:27:51.255Z</time>
      </trkpt>
      <trkpt lat="50.40304" lon="3.28783">
        <ele>16.83012199402</ele>
        <time>2020-12-18T19:28:01.025Z</time>
      </trkpt>
      <trkpt lat="50.4029" lon="3.28795">
        <ele>16.61957740784</ele>
        <time>2020-12-18T19:28:10.798Z</time>
      </trkpt>
      <trkpt lat="50.40204" lon="3.28934">
        <ele>15.94615840912</ele>
        <time>2020-12-18T19:28:20.596Z</time>
      </trkpt>
      <trkpt lat="50.40194" lon="3.28978">
        <ele>15.41838741302</ele>
        <time>2020-12-18T19:28:30.400Z</time>
      </trkpt>
      <trkpt lat="50.40148" lon="3.29517">
        <ele>16.85391616821</ele>
        <time>2020-12-18T19:28:40.274Z</time>
      </trkpt>
      <trkpt lat="50.40151" lon="3.29541">
        <ele>17</ele>
        <time>2020-12-18T19:28:50.151Z</time>
      </trkpt>
      <trkpt lat="50.40152" lon="3.29541">
        <ele>17</ele>
        <time>2020-12-18T19:29:00.028Z</time>
      </trkpt>
      <trkpt lat="50.40171" lon="3.29539">
        <ele>16.84114456177</ele>
        <time>2020-12-18T19:29:09.909Z</time>
      </trkpt>
      <trkpt lat="50.40321" lon="3.29531">
        <ele>17.06397819519</ele>
        <time>2020-12-18T19:29:19.820Z</time>
      </trkpt>
      <trkpt lat="50.40449" lon="3.29477">
        <ele>17.38633918762</ele>
        <time>2020-12-18T19:29:29.758Z</time>
      </trkpt>
      <trkpt lat="50.40472" lon="3.29467">
        <ele>17</ele>
        <time>2020-12-18T19:29:39.700Z</time>
      </trkpt>
      <trkpt lat="50.40554" lon="3.29385">
        <ele>15.93176937103</ele>
        <time>2020-12-18T19:29:49.662Z</time>
      </trkpt>
      <trkpt lat="50.40618" lon="3.29292">
        <ele>15.65962982178</ele>
        <time>2020-12-18T19:29:59.641Z</time>
      </trkpt>
      <trkpt lat="50.40911" lon="3.28739">
        <ele>18.29048156738</ele>
        <time>2020-12-18T19:30:09.712Z</time>
      </trkpt>
      <trkpt lat="50.40911" lon="3.28739">
        <ele>18.29027938843</ele>
        <time>2020-12-18T19:30:19.783Z</time>
      </trkpt>
      <trkpt lat="50.41001" lon="3.28593">
        <ele>16</ele>
        <time>2020-12-18T19:30:29.880Z</time>
      </trkpt>
      <trkpt lat="50.41003" lon="3.28618">
        <ele>16.25646781921</ele>
        <time>2020-12-18T19:30:39.980Z</time>
      </trkpt>
      <trkpt lat="50.40985" lon="3.28642">
        <ele>16.54237556458</ele>
        <time>2020-12-18T19:30:50.085Z</time>
      </trkpt>
      <trkpt lat="50.40985" lon="3.28642">
        <ele>16.54247665405</ele>
        <time>2020-12-18T19:31:00.190Z</time>
      </trkpt>
      <trkpt lat="50.41003" lon="3.28618">
        <ele>16.25646781921</ele>
        <time>2020-12-18T19:31:10.300Z</time>
      </trkpt>
      <trkpt lat="50.41001" lon="3.28593">
        <ele>16</ele>
        <time>2020-12-18T19:31:20.413Z</time>
      </trkpt>
      <trkpt lat="50.41104" lon="3.28486">
        <ele>16.65892982483</ele>
        <time>2020-12-18T19:31:30.551Z</time>
      </trkpt>
      <trkpt lat="50.41106" lon="3.28483">
        <ele>16.63453674316</ele>
        <time>2020-12-18T19:31:40.689Z</time>
      </trkpt>
      <trkpt lat="50.41106" lon="3.28483">
        <ele>16.63453674316</ele>
        <time>2020-12-18T19:31:50.827Z</time>
      </trkpt>
      <trkpt lat="50.41179" lon="3.2843">
        <ele>16.56000137329</ele>
        <time>2020-12-18T19:32:00.981Z</time>
      </trkpt>
      <trkpt lat="50.41279" lon="3.28383">
        <ele>17.77001190186</ele>
        <time>2020-12-18T19:32:11.156Z</time>
      </trkpt>
      <trkpt lat="50.41279" lon="3.28383">
        <ele>17.77011299133</ele>
        <time>2020-12-18T19:32:21.331Z</time>
      </trkpt>
      <trkpt lat="50.41705" lon="3.2819">
        <ele>16.36033439636</ele>
        <time>2020-12-18T19:32:31.595Z</time>
      </trkpt>
      <trkpt lat="50.41705" lon="3.2819">
        <ele>16.36023330688</ele>
        <time>2020-12-18T19:32:41.859Z</time>
      </trkpt>
      <trkpt lat="50.41944" lon="3.28082">
        <ele>17.47632980347</ele>
        <time>2020-12-18T19:32:52.173Z</time>
      </trkpt>
      <trkpt lat="50.41954" lon="3.28077">
        <ele>17.83161735535</ele>
        <time>2020-12-18T19:33:02.489Z</time>
      </trkpt>
      <trkpt lat="50.42175" lon="3.27977">
        <ele>28.4123249054</ele>
        <time>2020-12-18T19:33:12.851Z</time>
      </trkpt>
      <trkpt lat="50.42175" lon="3.27977">
        <ele>28.41262626648</ele>
        <time>2020-12-18T19:33:23.213Z</time>
      </trkpt>
      <trkpt lat="50.42542" lon="3.2781">
        <ele>26.43649291992</ele>
        <time>2020-12-18T19:33:33.652Z</time>
      </trkpt>
      <trkpt lat="50.42682" lon="3.27748">
        <ele>24.40598678589</ele>
        <time>2020-12-18T19:33:44.120Z</time>
      </trkpt>
      <trkpt lat="50.42682" lon="3.27748">
        <ele>24.40588569641</ele>
        <time>2020-12-18T19:33:54.588Z</time>
      </trkpt>
      <trkpt lat="50.42962" lon="3.27624">
        <ele>28.5258102417</ele>
        <time>2020-12-18T19:34:05.114Z</time>
      </trkpt>
      <trkpt lat="50.42962" lon="3.27624">
        <ele>28.52550888062</ele>
        <time>2020-12-18T19:34:15.640Z</time>
      </trkpt>
      <trkpt lat="50.42937" lon="3.28242">
        <ele>26.34193992615</ele>
        <time>2020-12-18T19:34:26.245Z</time>
      </trkpt>
      <trkpt lat="50.43333" lon="3.28143">
        <ele>28.66972160339</ele>
        <time>2020-12-18T19:34:36.930Z</time>
      </trkpt>
      <trkpt lat="50.43353" lon="3.28137">
        <ele>29.14207839966</ele>
        <time>2020-12-18T19:34:47.619Z</time>
      </trkpt>
      <trkpt lat="50.43648" lon="3.28063">
        <ele>28</ele>
        <time>2020-12-18T19:34:58.368Z</time>
      </trkpt>
      <trkpt lat="50.43733" lon="3.28043">
        <ele>27.77547645569</ele>
        <time>2020-12-18T19:35:09.134Z</time>
      </trkpt>
      <trkpt lat="50.43733" lon="3.28034">
        <ele>27.67249679565</ele>
        <time>2020-12-18T19:35:19.902Z</time>
      </trkpt>
      <trkpt lat="50.43746" lon="3.28039">
        <ele>28.09137916565</ele>
        <time>2020-12-18T19:35:30.672Z</time>
      </trkpt>
      <trkpt lat="50.4377" lon="3.27954">
        <ele>29.29397392273</ele>
        <time>2020-12-18T19:35:41.454Z</time>
      </trkpt>
      <trkpt lat="50.43759" lon="3.27804">
        <ele>30</ele>
        <time>2020-12-18T19:35:52.255Z</time>
      </trkpt>
      <trkpt lat="50.43769" lon="3.27763">
        <ele>30</ele>
        <time>2020-12-18T19:36:03.062Z</time>
      </trkpt>
      <trkpt lat="50.43768" lon="3.27627">
        <ele>29.62124252319</ele>
        <time>2020-12-18T19:36:13.886Z</time>
      </trkpt>
      <trkpt lat="50.43776" lon="3.27554">
        <ele>29.72422218323</ele>
        <time>2020-12-18T19:36:24.720Z</time>
      </trkpt>
      <trkpt lat="50.43776" lon="3.27385">
        <ele>29.44844436646</ele>
        <time>2020-12-18T19:36:35.575Z</time>
      </trkpt>
      <trkpt lat="50.43788" lon="3.27257">
        <ele>27.8000087738</ele>
        <time>2020-12-18T19:36:46.447Z</time>
      </trkpt>
      <trkpt lat="50.44176" lon="3.27086">
        <ele>23.57056045532</ele>
        <time>2020-12-18T19:36:57.400Z</time>
      </trkpt>
      <trkpt lat="50.44368" lon="3.27003">
        <ele>19.88341712952</ele>
        <time>2020-12-18T19:37:08.393Z</time>
      </trkpt>
      <trkpt lat="50.44531" lon="3.26931">
        <ele>20.78653335571</ele>
        <time>2020-12-18T19:37:19.419Z</time>
      </trkpt>
      <trkpt lat="50.44714" lon="3.26867">
        <ele>20</ele>
        <time>2020-12-18T19:37:30.483Z</time>
      </trkpt>
      <trkpt lat="50.44806" lon="3.26844">
        <ele>19.97829437256</ele>
        <time>2020-12-18T19:37:41.566Z</time>
      </trkpt>
      <trkpt lat="50.44806" lon="3.26844">
        <ele>19.97829437256</ele>
        <time>2020-12-18T19:37:52.649Z</time>
      </trkpt>
      <trkpt lat="50.45035" lon="3.26779">
        <ele>20.19307327271</ele>
        <time>2020-12-18T19:38:03.778Z</time>
      </trkpt>
      <trkpt lat="50.45527" lon="3.26665">
        <ele>24.63555335999</ele>
        <time>2020-12-18T19:38:15.007Z</time>
      </trkpt>
      <trkpt lat="50.45527" lon="3.26665">
        <ele>24.63575363159</ele>
        <time>2020-12-18T19:38:26.236Z</time>
      </trkpt>
      <trkpt lat="50.45968" lon="3.26549">
        <ele>30.93203926086</ele>
        <time>2020-12-18T19:38:37.554Z</time>
      </trkpt>
      <trkpt lat="50.46059" lon="3.26524">
        <ele>27.88318824768</ele>
        <time>2020-12-18T19:38:48.891Z</time>
      </trkpt>
      <trkpt lat="50.46059" lon="3.26524">
        <ele>27.8830871582</ele>
        <time>2020-12-18T19:39:00.228Z</time>
      </trkpt>
      <trkpt lat="50.46451" lon="3.26329">
        <ele>24.20048522949</ele>
        <time>2020-12-18T19:39:11.647Z</time>
      </trkpt>
      <trkpt lat="50.46453" lon="3.26318">
        <ele>24.34208297729</ele>
        <time>2020-12-18T19:39:23.068Z</time>
      </trkpt>
      <trkpt lat="50.46454" lon="3.26314">
        <ele>24.38069915771</ele>
        <time>2020-12-18T19:39:34.489Z</time>
      </trkpt>
      <trkpt lat="50.46475" lon="3.2621">
        <ele>24.88867378235</ele>
        <time>2020-12-18T19:39:45.924Z</time>
      </trkpt>
      <trkpt lat="50.46488" lon="3.26199">
        <ele>24.73420524597</ele>
        <time>2020-12-18T19:39:57.362Z</time>
      </trkpt>
      <trkpt lat="50.46501" lon="3.26208">
        <ele>24.57963371277</ele>
        <time>2020-12-18T19:40:08.803Z</time>
      </trkpt>
      <trkpt lat="50.46511" lon="3.26207">
        <ele>24.46529006958</ele>
        <time>2020-12-18T19:40:20.246Z</time>
      </trkpt>
    </trkseg>
  </trk>
</gpx>